M I D A S
Marine Information and Data Acquisition System
Tripno 1044 of the Zeeleeuw from 2006-03-03 08:01:59 to 2006-03-03 13:42:36
Back to CruiseResearch ActivitiesStationsMapUnderway DataData graphs

EquipmentUnitsComment
TimeDGPSUTC
LatitudeDGPSDM.mWGS84
LongitudeDGPSDM.mWGS84
TemperatureSBE03/SBE38deg celciusITS90
ConductivitySBE21S/mITS90
SalinitySBE21 Practical Salinity Units
ChlorophylAChelsea fluorimeterg/lCalibrated in Aceton
Missing or incorrect values are displayed as -999
Sea surface data collected by the RV Zeeleeuw from 2006-03-03 07:50:42 to 2006-03-03 13:57:16
                                                                                    Next 1000 lines
Time Latitude Longitude Temperature Conductivity Salinity ChlorophylA
2006-03-03 07:50:52 51°13.599 2°56.091 -999 3.610512 29.107901 10.781076
2006-03-03 07:50:57 51°13.6 2°56.088 -999 3.610512 29.107277 10.781076
2006-03-03 07:51:02 51°13.6 2°56.085 -999 3.610512 29.107901 10.781076
2006-03-03 07:51:07 51°13.601 2°56.082 -999 3.610512 29.107901 10.781076
2006-03-03 07:51:12 51°13.602 2°56.078 -999 3.610615 29.108828 10.747366
2006-03-03 07:51:17 51°13.603 2°56.074 -999 3.610615 29.108204 10.747366
2006-03-03 07:51:23 51°13.605 2°56.068 -999 3.610615 29.108204 10.747366
2006-03-03 07:51:28 51°13.606 2°56.063 -999 3.610615 29.107579 10.747366
2006-03-03 07:51:33 51°13.608 2°56.057 -999 3.610615 29.107579 10.781076
2006-03-03 07:51:37 51°13.609 2°56.053 -999 3.610615 29.107579 10.781076
2006-03-03 07:51:43 51°13.611 2°56.045 -999 3.610719 29.107882 10.781076
2006-03-03 07:51:48 51°13.613 2°56.039 -999 3.610719 29.107882 10.781076
2006-03-03 07:51:53 51°13.615 2°56.032 -999 3.610719 29.107257 10.781076
2006-03-03 07:51:58 51°13.617 2°56.025 -999 3.610719 29.107257 10.781076
2006-03-03 07:52:03 51°13.619 2°56.017 -999 3.610719 29.107257 10.781076
2006-03-03 07:52:08 51°13.621 2°56.01 -999 3.610719 29.107257 10.781076
2006-03-03 07:52:13 51°13.623 2°56.002 -999 3.610822 29.108184 10.781076
2006-03-03 07:52:17 51°13.625 2°55.996 -999 3.610822 29.108184 10.747366
2006-03-03 07:52:23 51°13.628 2°55.986 -999 3.610822 29.10756 10.781076
2006-03-03 07:52:28 51°13.63 2°55.979 -999 3.610822 29.10756 10.747366
2006-03-03 07:52:33 51°13.632 2°55.97 -999 3.610822 29.10756 10.747366
2006-03-03 07:52:38 51°13.634 2°55.961 -999 3.610822 29.10756 10.747366
2006-03-03 07:52:43 51°13.636 2°55.952 -999 3.610822 29.106935 10.747366
2006-03-03 07:52:48 51°13.639 2°55.943 -999 3.610926 29.107862 10.747366
2006-03-03 07:52:53 51°13.641 2°55.933 -999 3.610926 29.107862 10.747366
2006-03-03 07:52:58 51°13.644 2°55.923 -999 3.610926 29.107862 10.747366
2006-03-03 07:53:03 51°13.647 2°55.913 -999 3.610926 29.107862 10.781076
2006-03-03 07:53:08 51°13.65 2°55.903 -999 3.610926 29.107862 10.781076
2006-03-03 07:53:13 51°13.653 2°55.892 -999 3.611029 29.108789 10.781076
2006-03-03 07:53:17 51°13.656 2°55.884 -999 3.611029 29.108164 10.747366
2006-03-03 07:53:23 51°13.66 2°55.871 -999 3.611029 29.108164 10.781076
2006-03-03 07:53:28 51°13.664 2°55.861 -999 3.611029 29.108164 10.781076
2006-03-03 07:53:33 51°13.667 2°55.85 -999 3.611029 29.108164 10.747366
2006-03-03 07:53:37 51°13.67 2°55.842 -999 3.611029 29.108164 10.747366
2006-03-03 07:53:43 51°13.674 2°55.83 -999 3.611029 29.108164 10.747366
2006-03-03 07:53:48 51°13.678 2°55.819 -999 3.611029 29.108164 10.747366
2006-03-03 07:53:53 51°13.682 2°55.808 -999 3.611133 29.108467 10.781076
2006-03-03 07:53:58 51°13.685 2°55.798 -999 3.611133 29.108467 10.781076
2006-03-03 07:54:03 51°13.688 2°55.788 -999 3.611133 29.107842 10.781076
2006-03-03 07:54:08 51°13.691 2°55.779 -999 3.611133 29.107842 10.781076
2006-03-03 07:54:13 51°13.694 2°55.77 -999 3.611133 29.107842 10.781076
2006-03-03 07:54:17 51°13.696 2°55.763 -999 3.611133 29.107218 10.747366
2006-03-03 07:54:22 51°13.698 2°55.754 -999 3.611133 29.106594 10.747366
2006-03-03 07:54:27 51°13.701 2°55.746 -999 3.611237 29.10752 10.747366
2006-03-03 07:54:33 51°13.703 2°55.736 -999 3.611237 29.10752 10.781076
2006-03-03 07:54:37 51°13.704 2°55.73 -999 3.611237 29.10752 10.781076
2006-03-03 07:54:43 51°13.707 2°55.722 -999 3.611237 29.10752 10.781076
2006-03-03 07:54:47 51°13.708 2°55.717 -999 3.611237 29.10752 10.781076
2006-03-03 07:54:53 51°13.709 2°55.713 -999 3.611237 29.10752 10.781076
2006-03-03 07:54:57 51°13.71 2°55.712 -999 3.611237 29.106896 10.781076
2006-03-03 07:55:03 51°13.711 2°55.713 -999 3.611237 29.106272 10.781076
2006-03-03 07:55:08 51°13.712 2°55.716 -999 3.611237 29.106272 10.781076
2006-03-03 07:55:13 51°13.713 2°55.719 -999 3.611237 29.106896 10.747366
2006-03-03 07:55:17 51°13.714 2°55.721 -999 3.61134 29.107823 10.781076
2006-03-03 07:55:22 51°13.716 2°55.725 -999 3.61134 29.108447 10.747366
2006-03-03 07:55:27 51°13.718 2°55.728 -999 3.611133 29.107218 10.781076
2006-03-03 07:55:33 51°13.72 2°55.731 -999 3.488423 27.952254 10.713657
2006-03-03 07:55:38 51°13.722 2°55.733 -999 3.488423 27.952254 10.713657
2006-03-03 07:55:43 51°13.723 2°55.735 -999 3.598081 28.832895 9.904631
2006-03-03 07:55:48 51°13.725 2°55.736 -999 2.851485 22.035281 14.4554
2006-03-03 07:55:53 51°13.726 2°55.737 -999 3.481803 28.271667 10.140597
2006-03-03 07:55:57 51°13.726 2°55.737 -999 3.364849 29.030437 7.17417
2006-03-03 07:56:03 51°13.727 2°55.736 -999 3.074618 27.992625 9.870922
2006-03-03 07:56:08 51°13.727 2°55.735 -999 3.074618 27.992625 9.870922
2006-03-03 07:56:13 51°13.727 2°55.734 -999 2.884541 27.461571 11.286717
2006-03-03 07:56:17 51°13.727 2°55.733 -999 2.698979 26.530241 11.69123
2006-03-03 07:56:23 51°13.726 2°55.73 -999 2.634595 26.447621 11.893486
2006-03-03 07:56:28 51°13.725 2°55.728 -999 2.570113 26.135318 12.062033
2006-03-03 07:56:33 51°13.725 2°55.726 -999 2.498613 25.607118 11.994614
2006-03-03 07:56:37 51°13.724 2°55.724 -999 2.498613 25.607118 11.994614
2006-03-03 07:56:42 51°13.723 2°55.722 -999 2.482806 25.57992 11.893486
2006-03-03 07:56:47 51°13.723 2°55.721 -999 2.432495 25.119865 11.792358
2006-03-03 07:56:52 51°13.723 2°55.72 -999 2.454604 25.469171 11.69123
2006-03-03 07:56:58 51°13.724 2°55.719 -999 2.444893 25.422893 11.792358
2006-03-03 07:57:03 51°13.724 2°55.718 -999 2.436526 25.398633 11.69123
2006-03-03 07:57:08 51°13.725 2°55.718 -999 2.436526 25.398633 11.69123
2006-03-03 07:57:13 51°13.726 2°55.718 -999 2.438903 25.478359 11.488973
2006-03-03 07:57:17 51°13.727 2°55.718 -999 2.444378 25.577125 11.286717
2006-03-03 07:57:22 51°13.729 2°55.718 -999 2.443966 25.605422 11.11817
2006-03-03 07:57:27 51°13.731 2°55.718 -999 2.427953 25.44518 10.949623
2006-03-03 07:57:33 51°13.735 2°55.718 -999 2.435701 25.555003 10.747366
2006-03-03 07:57:37 51°13.738 2°55.718 -999 2.435701 25.555003 10.747366
2006-03-03 07:57:42 51°13.742 2°55.717 -999 2.434049 25.549058 10.578819
2006-03-03 07:57:48 51°13.747 2°55.715 -999 2.419689 25.402174 10.410272
2006-03-03 07:57:53 51°13.751 2°55.712 -999 2.411322 25.325718 10.208016
2006-03-03 07:57:58 51°13.756 2°55.708 -999 2.400372 25.212587 10.039469
2006-03-03 07:58:02 51°13.76 2°55.704 -999 2.381262 25.011517 9.870922
2006-03-03 07:58:07 51°13.765 2°55.699 -999 2.381262 25.011517 9.870922
2006-03-03 07:58:12 51°13.771 2°55.693 -999 2.373205 24.932341 9.702375
2006-03-03 07:58:17 51°13.777 2°55.686 -999 2.361533 24.812245 9.533828
2006-03-03 07:58:22 51°13.784 2°55.679 -999 2.352237 24.713467 9.39899
2006-03-03 07:58:27 51°13.791 2°55.672 -999 2.342528 24.606943 9.297862
2006-03-03 07:58:33 51°13.801 2°55.663 -999 2.326622 24.429153 9.163024
2006-03-03 07:58:38 51°13.809 2°55.655 -999 2.326622 24.429153 9.163024
2006-03-03 07:58:42 51°13.816 2°55.648 -999 2.328481 24.451275 9.028187
2006-03-03 07:58:47 51°13.825 2°55.64 -999 2.304726 24.176758 8.960768
2006-03-03 07:58:53 51°13.836 2°55.63 -999 2.296981 24.086344 8.82593
2006-03-03 07:58:58 51°13.845 2°55.621 -999 2.2692 23.761871 8.623674
2006-03-03 07:59:03 51°13.855 2°55.612 -999 2.237496 23.393159 8.387708
2006-03-03 07:59:07 51°13.863 2°55.605 -999 2.237496 23.393159 8.387708
2006-03-03 07:59:13 51°13.875 2°55.596 -999 2.207757 23.058831 8.219161
2006-03-03 07:59:17 51°13.884 2°55.589 -999 2.202181 22.999323 8.050614
2006-03-03 07:59:23 51°13.896 2°55.579 -999 2.201354 22.9732 7.882067
2006-03-03 07:59:27 51°13.905 2°55.573 -999 2.222006 23.190795 7.74723
2006-03-03 07:59:32 51°13.916 2°55.565 -999 2.238322 23.37715 7.646101
2006-03-03 07:59:37 51°13.927 2°55.556 -999 2.238322 23.37715 7.646101
2006-03-03 07:59:42 51°13.938 2°55.548 -999 2.251953 23.541506 7.544973
2006-03-03 07:59:47 51°13.949 2°55.54 -999 2.275602 23.813651 7.477554
2006-03-03 07:59:52 51°13.961 2°55.532 -999 2.287892 23.941446 7.477554
2006-03-03 07:59:57 51°13.972 2°55.524 -999 2.319702 24.315728 7.477554
2006-03-03 08:00:02 51°13.983 2°55.516 -999 2.347279 24.640001 7.443845
2006-03-03 08:00:07 51°13.995 2°55.508 -999 2.347279 24.640001 7.443845
2006-03-03 08:00:12 51°14.006 2°55.5 -999 2.362876 24.846494 7.376426
2006-03-03 08:00:17 51°14.018 2°55.492 -999 2.404195 25.345365 7.309007
2006-03-03 08:00:22 51°14.029 2°55.484 -999 2.436943 25.735104 7.275298
2006-03-03 08:00:27 51°14.04 2°55.477 -999 2.454506 25.960659 7.275298
2006-03-03 08:00:33 51°14.053 2°55.468 -999 2.477545 26.24328 7.241589
2006-03-03 08:00:37 51°14.062 2°55.461 -999 2.477545 26.24328 7.241589
2006-03-03 08:00:43 51°14.075 2°55.452 -999 2.496969 26.479629 7.073042
2006-03-03 08:00:47 51°14.084 2°55.445 -999 2.508231 26.618848 6.904494
2006-03-03 08:00:52 51°14.095 2°55.437 -999 2.52125 26.781158 6.735947
2006-03-03 08:00:57 51°14.106 2°55.428 -999 2.526106 26.846783 6.499982
2006-03-03 08:01:03 51°14.121 2°55.418 -999 2.533443 26.937329 6.297725
2006-03-03 08:01:07 51°14.13 2°55.41 -999 2.533443 26.937329 6.297725
2006-03-03 08:01:13 51°14.144 2°55.399 -999 2.532719 26.92397 6.095469
2006-03-03 08:01:17 51°14.154 2°55.39 -999 2.532822 26.916991 5.893212
2006-03-03 08:01:22 51°14.166 2°55.379 -999 2.527863 26.863199 5.690956
2006-03-03 08:01:27 51°14.177 2°55.368 -999 2.522283 26.792395 5.556118
2006-03-03 08:01:32 51°14.189 2°55.356 -999 2.5228 26.795977 5.387571
2006-03-03 08:01:37 51°14.201 2°55.344 -999 2.5228 26.795977 5.387571
2006-03-03 08:01:42 51°14.212 2°55.33 -999 2.513087 26.687597 5.252734
2006-03-03 08:01:47 51°14.223 2°55.317 -999 2.519907 26.774445 5.117896
2006-03-03 08:01:52 51°14.234 2°55.302 -999 2.518564 26.764472 5.016768
2006-03-03 08:01:57 51°14.245 2°55.288 -999 2.506578 26.631148 4.88193
2006-03-03 08:02:02 51°14.256 2°55.272 -999 2.507405 26.649707 4.780802
2006-03-03 08:02:07 51°14.266 2°55.256 -999 2.507405 26.649707 4.780802
2006-03-03 08:02:12 51°14.276 2°55.239 -999 2.491907 26.475393 4.713383
2006-03-03 08:02:17 51°14.286 2°55.221 -999 2.481265 26.353736 4.612255
2006-03-03 08:02:22 51°14.295 2°55.203 -999 2.471656 26.247361 4.544836
2006-03-03 08:02:27 51°14.304 2°55.185 -999 2.466077 26.187145 4.477418
2006-03-03 08:02:33 51°14.315 2°55.163 -999 2.460499 26.124539 4.376289
2006-03-03 08:02:38 51°14.323 2°55.143 -999 2.460499 26.124539 4.376289
2006-03-03 08:02:42 51°14.33 2°55.128 -999 2.466801 26.204351 4.34258
2006-03-03 08:02:47 51°14.338 2°55.108 -999 2.464941 26.186665 4.308871
2006-03-03 08:02:52 51°14.346 2°55.087 -999 2.474756 26.305911 4.275161
2006-03-03 08:02:57 51°14.353 2°55.065 -999 2.491804 26.50889 4.207742
2006-03-03 08:03:02 51°14.36 2°55.043 -999 2.510505 26.729809 4.174033
2006-03-03 08:03:07 51°14.367 2°55.02 -999 2.510505 26.729809 4.174033
2006-03-03 08:03:12 51°14.373 2°54.997 -999 2.518048 26.821264 4.106614
2006-03-03 08:03:17 51°14.378 2°54.973 -999 2.532927 26.99699 4.072905
2006-03-03 08:03:22 51°14.383 2°54.948 -999 2.53427 27.012714 4.072905
2006-03-03 08:03:27 51°14.388 2°54.923 -999 2.54109 27.093383 4.106614
2006-03-03 08:03:32 51°14.391 2°54.897 -999 2.53861 27.06517 4.140324
2006-03-03 08:03:37 51°14.395 2°54.871 -999 2.53861 27.06517 4.140324
2006-03-03 08:03:42 51°14.397 2°54.845 -999 2.53861 27.06517 4.174033
2006-03-03 08:03:47 51°14.399 2°54.817 -999 2.531067 26.979335 4.207742
2006-03-03 08:03:52 51°14.401 2°54.79 -999 2.531583 26.987852 4.207742
2006-03-03 08:03:57 51°14.402 2°54.762 -999 2.526624 26.932261 4.308871
2006-03-03 08:04:02 51°14.404 2°54.733 -999 2.538093 27.067376 4.376289
2006-03-03 08:04:07 51°14.405 2°54.705 -999 2.538093 27.067376 4.376289
2006-03-03 08:04:12 51°14.407 2°54.676 -999 2.540986 27.103745 4.477418
2006-03-03 08:04:17 51°14.408 2°54.647 -999 2.573123 27.483059 4.544836
2006-03-03 08:04:22 51°14.409 2°54.618 -999 2.596271 27.759113 4.578546
2006-03-03 08:04:27 51°14.41 2°54.588 -999 2.58449 27.620713 4.578546
2006-03-03 08:04:32 51°14.411 2°54.557 -999 2.625518 28.10735 4.544836
2006-03-03 08:04:37 51°14.411 2°54.528 -999 2.625518 28.10735 4.544836
2006-03-03 08:04:42 51°14.41 2°54.497 -999 2.648359 28.38329 4.443708
2006-03-03 08:04:47 51°14.409 2°54.467 -999 2.656524 28.486513 4.34258
2006-03-03 08:04:52 51°14.407 2°54.437 -999 2.669754 28.642613 4.241452
2006-03-03 08:04:57 51°14.404 2°54.406 -999 2.673785 28.691949 4.106614
2006-03-03 08:05:02 51°14.4 2°54.376 -999 2.692183 28.912799 3.938067
2006-03-03 08:05:07 51°14.396 2°54.347 -999 2.692183 28.912799 3.938067
2006-03-03 08:05:12 51°14.39 2°54.318 -999 2.69487 28.94987 3.76952
2006-03-03 08:05:17 51°14.383 2°54.29 -999 2.709135 29.129254 3.668392
2006-03-03 08:05:22 51°14.375 2°54.262 -999 2.718748 29.251107 3.567264
2006-03-03 08:05:27 51°14.366 2°54.235 -999 2.725984 29.347597 3.533554
2006-03-03 08:05:32 51°14.357 2°54.208 -999 2.739939 29.519391 3.533554
2006-03-03 08:05:37 51°14.348 2°54.182 -999 2.739939 29.519391 3.533554
2006-03-03 08:05:42 51°14.338 2°54.155 -999 2.747693 29.618643 3.567264
2006-03-03 08:05:47 51°14.328 2°54.128 -999 2.736838 29.495236 3.600973
2006-03-03 08:05:52 51°14.318 2°54.102 -999 2.762062 29.802065 3.600973
2006-03-03 08:05:57 51°14.307 2°54.077 -999 2.774157 29.949537 3.600973
2006-03-03 08:06:02 51°14.297 2°54.051 -999 2.76537 29.848698 3.668392
2006-03-03 08:06:07 51°14.286 2°54.025 -999 2.76537 29.848698 3.668392
2006-03-03 08:06:12 51°14.275 2°53.999 -999 2.776535 29.984248 3.971777
2006-03-03 08:06:17 51°14.265 2°53.974 -999 2.742317 29.579279 4.241452
2006-03-03 08:06:22 51°14.254 2°53.948 -999 2.783565 30.07067 4.275161
2006-03-03 08:06:27 51°14.244 2°53.922 -999 2.780464 30.032834 4.275161
2006-03-03 08:06:32 51°14.234 2°53.895 -999 2.777466 29.9944 4.241452
2006-03-03 08:06:37 51°14.223 2°53.869 -999 2.777466 29.9944 4.241452
2006-03-03 08:06:42 51°14.215 2°53.841 -999 2.754516 29.718757 4.174033
2006-03-03 08:06:47 51°14.205 2°53.813 -999 2.780257 30.024855 4.140324
2006-03-03 08:06:52 51°14.198 2°53.785 -999 2.778913 30.008864 4.072905
2006-03-03 08:06:57 51°14.189 2°53.757 -999 2.775088 29.961521 4.039195
2006-03-03 08:07:02 51°14.181 2°53.728 -999 2.788011 30.112523 4.039195
2006-03-03 08:07:07 51°14.173 2°53.7 -999 2.788011 30.112523 4.039195
2006-03-03 08:07:12 51°14.165 2°53.671 -999 2.790595 30.137748 4.072905
2006-03-03 08:07:17 51°14.157 2°53.643 -999 2.780774 30.012621 4.140324
2006-03-03 08:07:22 51°14.149 2°53.614 -999 2.782738 30.031385 4.072905
2006-03-03 08:07:27 51°14.14 2°53.586 -999 2.781291 30.014175 3.938067
2006-03-03 08:07:32 51°14.13 2°53.558 -999 2.786357 30.082703 3.80323
2006-03-03 08:07:37 51°14.121 2°53.531 -999 2.786357 30.082703 3.80323
2006-03-03 08:07:42 51°14.11 2°53.505 -999 2.792043 30.159592 3.702101
2006-03-03 08:07:47 51°14.098 2°53.479 -999 2.79287 30.172209 3.634683
2006-03-03 08:07:52 51°14.087 2°53.453 -999 2.790492 30.146671 3.533554
2006-03-03 08:07:57 51°14.075 2°53.428 -999 2.794834 30.204847 3.466136
2006-03-03 08:08:02 51°14.063 2°53.403 -999 2.794628 30.208863 3.398717
2006-03-03 08:08:07 51°14.05 2°53.378 -999 2.794628 30.208863 3.398717
2006-03-03 08:08:12 51°14.039 2°53.352 -999 2.788838 30.14637 3.365007
2006-03-03 08:08:17 51°14.027 2°53.327 -999 2.793801 30.213824 3.331298
2006-03-03 08:08:22 51°14.015 2°53.301 -999 2.79318 30.20921 3.297589
2006-03-03 08:08:27 51°14.004 2°53.275 -999 2.776846 30.021045 3.297589
2006-03-03 08:08:32 51°13.992 2°53.249 -999 2.785427 30.129746 3.297589
2006-03-03 08:08:37 51°13.982 2°53.221 -999 2.785427 30.129746 3.297589
2006-03-03 08:08:42 51°13.972 2°53.194 -999 2.788528 30.169493 3.297589
2006-03-03 08:08:47 51°13.963 2°53.166 -999 2.788011 30.165181 3.297589
2006-03-03 08:08:52 51°13.954 2°53.137 -999 2.780464 30.077063 3.297589
2006-03-03 08:08:57 51°13.946 2°53.108 -999 2.782532 30.102632 3.297589
2006-03-03 08:09:02 51°13.937 2°53.08 -999 2.785427 30.133443 3.331298
2006-03-03 08:09:07 51°13.928 2°53.051 -999 2.785427 30.133443 3.331298
2006-03-03 08:09:12 51°13.92 2°53.022 -999 2.784393 30.118347 3.398717
2006-03-03 08:09:17 51°13.911 2°52.994 -999 2.785737 30.130669 3.432426
2006-03-03 08:09:22 51°13.902 2°52.965 -999 2.784806 30.118656 3.466136
2006-03-03 08:09:27 51°13.892 2°52.937 -999 2.78646 30.13837 3.466136
2006-03-03 08:09:32 51°13.882 2°52.91 -999 2.786357 30.137138 3.533554
2006-03-03 08:09:37 51°13.872 2°52.882 -999 2.786357 30.137138 3.533554
2006-03-03 08:09:42 51°13.86 2°52.856 -999 2.789045 30.168251 3.600973
2006-03-03 08:09:47 51°13.849 2°52.829 -999 2.786357 30.134365 3.668392
2006-03-03 08:09:52 51°13.837 2°52.804 -999 2.783049 30.095866 3.668392
2006-03-03 08:09:57 51°13.825 2°52.778 -999 2.78584 30.129129 3.634683
2006-03-03 08:10:02 51°13.813 2°52.752 -999 2.787598 30.14915 3.634683
2006-03-03 08:10:07 51°13.801 2°52.727 -999 2.787598 30.14915 3.634683
2006-03-03 08:10:12 51°13.789 2°52.702 -999 2.788942 30.161469 3.600973
2006-03-03 08:10:17 51°13.777 2°52.676 -999 2.788114 30.14699 3.600973
2006-03-03 08:10:22 51°13.766 2°52.65 -999 2.793077 30.202421 3.600973
2006-03-03 08:10:27 51°13.754 2°52.624 -999 2.788941 30.146678 3.634683
2006-03-03 08:10:32 51°13.744 2°52.597 -999 2.793697 30.196853 3.634683
2006-03-03 08:10:37 51°13.733 2°52.57 -999 2.793697 30.196853 3.634683
2006-03-03 08:10:42 51°13.723 2°52.542 -999 2.789768 30.146366 3.668392
2006-03-03 08:10:47 51°13.714 2°52.515 -999 2.792043 30.170679 3.702101
2006-03-03 08:10:52 51°13.704 2°52.487 -999 2.79318 30.182372 3.702101
2006-03-03 08:10:57 51°13.695 2°52.459 -999 2.792663 30.173444 3.668392
2006-03-03 08:11:02 51°13.687 2°52.43 -999 2.791422 30.159596 3.634683
2006-03-03 08:11:07 51°13.678 2°52.401 -999 2.791422 30.159596 3.634683
2006-03-03 08:11:12 51°13.669 2°52.373 -999 2.788424 30.125748 3.600973
2006-03-03 08:11:17 51°13.659 2°52.346 -999 2.794214 30.198384 3.600973
2006-03-03 08:11:22 51°13.649 2°52.318 -999 2.791526 30.163599 3.600973
2006-03-03 08:11:27 51°13.638 2°52.291 -999 2.791939 30.171296 3.600973
2006-03-03 08:11:32 51°13.628 2°52.265 -999 2.793697 30.194078 3.634683
2006-03-03 08:11:37 51°13.616 2°52.239 -999 2.793697 30.194078 3.634683
2006-03-03 08:11:42 51°13.605 2°52.213 -999 2.788735 30.136826 3.668392
2006-03-03 08:11:47 51°13.593 2°52.187 -999 2.792043 30.174376 3.702101
2006-03-03 08:11:52 51°13.582 2°52.161 -999 2.793904 30.195615 3.702101
2006-03-03 08:11:57 51°13.571 2°52.135 -999 2.794111 30.199003 3.702101
2006-03-03 08:12:02 51°13.56 2°52.108 -999 2.794524 30.203929 3.702101
2006-03-03 08:12:07 51°13.548 2°52.082 -999 2.794524 30.203929 3.702101
2006-03-03 08:12:12 51°13.538 2°52.055 -999 2.791216 30.164526 3.702101
2006-03-03 08:12:17 51°13.528 2°52.028 -999 2.792973 30.187308 3.702101
2006-03-03 08:12:22 51°13.518 2°52 -999 2.791423 30.167913 3.735811
2006-03-03 08:12:27 51°13.508 2°51.972 -999 2.794524 30.20578 3.76952
2006-03-03 08:12:32 51°13.499 2°51.944 -999 2.792767 30.18392 3.80323
2006-03-03 08:12:37 51°13.49 2°51.915 -999 2.792767 30.18392 3.80323
2006-03-03 08:12:42 51°13.481 2°51.887 -999 2.7938 30.193459 3.836939
2006-03-03 08:12:47 51°13.473 2°51.859 -999 2.79225 30.172217 3.870648
2006-03-03 08:12:52 51°13.463 2°51.831 -999 2.789251 30.133748 3.870648
2006-03-03 08:12:57 51°13.453 2°51.803 -999 2.793077 30.177443 3.870648
2006-03-03 08:13:02 51°13.443 2°51.777 -999 2.795765 30.209451 3.870648
2006-03-03 08:13:07 51°13.432 2°51.749 -999 2.795765 30.209451 3.870648
2006-03-03 08:13:12 51°13.421 2°51.723 -999 2.797109 30.226382 3.870648
2006-03-03 08:13:17 51°13.41 2°51.698 -999 2.789251 30.134671 3.870648
2006-03-03 08:13:22 51°13.398 2°51.671 -999 2.796075 30.217772 3.836939
2006-03-03 08:13:27 51°13.387 2°51.646 -999 2.7938 30.194384 3.836939
2006-03-03 08:13:32 51°13.375 2°51.62 -999 2.797522 30.24335 3.80323
2006-03-03 08:13:37 51°13.364 2°51.594 -999 2.797522 30.24335 3.80323
2006-03-03 08:13:42 51°13.352 2°51.568 -999 2.798246 30.254754 3.76952
2006-03-03 08:13:47 51°13.341 2°51.541 -999 2.794317 30.211648 3.76952
2006-03-03 08:13:52 51°13.331 2°51.515 -999 2.795558 30.230137 3.76952
2006-03-03 08:13:57 51°13.321 2°51.486 -999 2.79194 30.189795 3.76952
2006-03-03 08:14:02 51°13.311 2°51.459 -999 2.790596 30.174705 3.735811
2006-03-03 08:14:07 51°13.302 2°51.431 -999 2.790596 30.174705 3.735811
2006-03-03 08:14:12 51°13.293 2°51.403 -999 2.794834 30.225219 3.76952
2006-03-03 08:14:17 51°13.283 2°51.375 -999 2.792353 30.192872 3.76952
2006-03-03 08:14:22 51°13.274 2°51.347 -999 2.790079 30.162998 3.80323
2006-03-03 08:14:27 51°13.265 2°51.318 -999 2.792146 30.183931 3.836939
2006-03-03 08:14:32 51°13.255 2°51.29 -999 2.793594 30.195622 3.836939
2006-03-03 08:14:37 51°13.246 2°51.262 -999 2.793594 30.195622 3.836939
2006-03-03 08:14:42 51°13.236 2°51.234 -999 2.793697 30.197779 3.836939
2006-03-03 08:14:47 51°13.226 2°51.207 -999 2.797522 30.24335 3.836939
2006-03-03 08:14:52 51°13.215 2°51.18 -999 2.795765 30.220558 3.836939
2006-03-03 08:14:57 51°13.205 2°51.153 -999 2.789872 30.151292 3.870648
2006-03-03 08:15:02 51°13.193 2°51.127 -999 2.791319 30.169455 3.836939
2006-03-03 08:15:07 51°13.182 2°51.101 -999 2.791319 30.169455 3.836939
2006-03-03 08:15:12 51°13.17 2°51.075 -999 2.794214 30.204862 3.870648
2006-03-03 08:15:17 51°13.159 2°51.049 -999 2.791733 30.17808 3.870648
2006-03-03 08:15:22 51°13.147 2°51.023 -999 2.794731 30.213798 3.870648
2006-03-03 08:15:27 51°13.136 2°50.997 -999 2.792353 30.184544 3.870648
2006-03-03 08:15:32 51°13.125 2°50.971 -999 2.790492 30.163301 3.904358
2006-03-03 08:15:37 51°13.114 2°50.944 -999 2.790492 30.163301 3.904358
2006-03-03 08:15:42 51°13.103 2°50.917 -999 2.783876 30.085422 3.904358
2006-03-03 08:15:47 51°13.092 2°50.891 -999 2.79194 30.182393 3.904358
2006-03-03 08:15:52 51°13.082 2°50.863 -999 2.781084 30.054027 3.938067
2006-03-03 08:15:57 51°13.073 2°50.835 -999 2.787494 30.130361 3.938067
2006-03-03 08:16:02 51°13.063 2°50.807 -999 2.788528 30.142676 3.971777
2006-03-03 08:16:07 51°13.054 2°50.779 -999 2.788528 30.142676 3.971777
2006-03-03 08:16:12 51°13.045 2°50.751 -999 2.789769 30.157454 3.971777
2006-03-03 08:16:17 51°13.035 2°50.723 -999 2.787081 30.125436 3.971777
2006-03-03 08:16:22 51°13.026 2°50.694 -999 2.787804 30.134056 3.938067
2006-03-03 08:16:27 51°13.016 2°50.667 -999 2.787494 30.130361 3.938067
2006-03-03 08:16:32 51°13.007 2°50.639 -999 2.79256 30.192559 3.938067
2006-03-03 08:16:37 51°12.996 2°50.611 -999 2.79256 30.192559 3.938067
2006-03-03 08:16:42 51°12.986 2°50.585 -999 2.794731 30.219355 3.938067
2006-03-03 08:16:47 51°12.975 2°50.558 -999 2.796178 30.241238 3.904358
2006-03-03 08:16:52 51°12.963 2°50.531 -999 2.796695 30.251109 3.904358
2006-03-03 08:16:57 51°12.953 2°50.505 -999 2.795351 30.237869 3.904358
2006-03-03 08:17:02 51°12.941 2°50.479 -999 2.791526 30.19505 3.904358
2006-03-03 08:17:07 51°12.93 2°50.452 -999 2.791526 30.19505 3.904358
2006-03-03 08:17:12 51°12.918 2°50.427 -999 2.794835 30.238198 3.904358
2006-03-03 08:17:17 51°12.908 2°50.4 -999 2.787701 30.155007 3.904358
2006-03-03 08:17:22 51°12.896 2°50.373 -999 2.79163 30.203693 3.870648
2006-03-03 08:17:27 51°12.886 2°50.346 -999 2.792147 30.210783 3.904358
2006-03-03 08:17:32 51°12.876 2°50.318 -999 2.789459 30.180586 3.904358
2006-03-03 08:17:37 51°12.867 2°50.29 -999 2.789459 30.180586 3.904358
2006-03-03 08:17:42 51°12.857 2°50.262 -999 2.791216 30.201542 3.904358
2006-03-03 08:17:47 51°12.847 2°50.234 -999 2.783256 30.107564 3.904358
2006-03-03 08:17:52 51°12.838 2°50.206 -999 2.789665 30.183977 3.904358
2006-03-03 08:17:57 51°12.828 2°50.178 -999 2.788735 30.172883 3.904358
2006-03-03 08:18:02 51°12.819 2°50.15 -999 2.790286 30.193226 3.904358
2006-03-03 08:18:07 51°12.809 2°50.122 -999 2.790286 30.193226 3.904358
2006-03-03 08:18:12 51°12.799 2°50.094 -999 2.782325 30.101091 3.904358
2006-03-03 08:18:17 51°12.788 2°50.067 -999 2.789562 30.187375 3.904358
2006-03-03 08:18:22 51°12.777 2°50.041 -999 2.788321 30.173507 3.904358
2006-03-03 08:18:27 51°12.766 2°50.014 -999 2.782532 30.109099 3.904358
2006-03-03 08:18:32 51°12.756 2°49.987 -999 2.787598 30.172285 3.904358
2006-03-03 08:18:37 51°12.744 2°49.961 -999 2.787598 30.172285 3.904358
2006-03-03 08:18:42 51°12.733 2°49.934 -999 2.783876 30.130673 3.904358
2006-03-03 08:18:47 51°12.722 2°49.908 -999 2.782119 30.110638 3.904358
2006-03-03 08:18:52 51°12.711 2°49.881 -999 2.786357 30.163969 3.938067
2006-03-03 08:18:57 51°12.701 2°49.854 -999 2.787288 30.176922 3.938067
2006-03-03 08:19:02 51°12.691 2°49.827 -999 2.782015 30.114027 3.938067
2006-03-03 08:19:07 51°12.681 2°49.799 -999 2.782015 30.114027 3.938067
2006-03-03 08:19:12 51°12.671 2°49.771 -999 2.784393 30.143315 3.938067
2006-03-03 08:19:17 51°12.662 2°49.743 -999 2.786667 30.171374 3.938067
2006-03-03 08:19:22 51°12.653 2°49.715 -999 2.786564 30.171994 3.938067
2006-03-03 08:19:26 51°12.646 2°49.692 -999 2.784807 30.151025 3.971777
2006-03-03 08:19:32 51°12.635 2°49.659 -999 2.787805 30.184016 4.005486
2006-03-03 08:19:37 51°12.625 2°49.631 -999 2.787805 30.184016 4.005486
2006-03-03 08:19:42 51°12.616 2°49.603 -999 2.779948 30.089367 4.072905
2006-03-03 08:19:47 51°12.606 2°49.575 -999 2.787495 30.178462 4.106614
2006-03-03 08:19:52 51°12.597 2°49.547 -999 2.791733 30.228108 4.140324
2006-03-03 08:19:57 51°12.587 2°49.519 -999 2.788735 30.189556 4.140324
2006-03-03 08:20:02 51°12.577 2°49.491 -999 2.797109 30.288545 4.140324
2006-03-03 08:20:07 51°12.567 2°49.464 -999 2.797109 30.288545 4.140324
2006-03-03 08:20:12 51°12.558 2°49.437 -999 2.790493 30.207741 4.140324
2006-03-03 08:20:17 51°12.547 2°49.41 -999 2.795972 30.272186 4.140324
2006-03-03 08:20:22 51°12.537 2°49.382 -999 2.792974 30.235486 4.140324
2006-03-03 08:20:27 51°12.526 2°49.356 -999 2.794525 30.253059 4.140324
2006-03-03 08:20:32 51°12.516 2°49.329 -999 2.796489 30.275566 4.140324
2006-03-03 08:20:37 51°12.505 2°49.302 -999 2.796489 30.275566 4.140324
2006-03-03 08:20:42 51°12.495 2°49.275 -999 2.795558 30.264465 4.140324
2006-03-03 08:20:47 51°12.485 2°49.248 -999 2.794525 30.253059 4.140324
2006-03-03 08:20:52 51°12.476 2°49.22 -999 2.794318 30.25152 4.140324
2006-03-03 08:20:57 51°12.467 2°49.192 -999 2.791216 30.214519 4.106614
2006-03-03 08:21:02 51°12.458 2°49.164 -999 2.794008 30.245963 4.106614
2006-03-03 08:21:07 51°12.45 2°49.134 -999 2.794008 30.245963 4.106614
2006-03-03 08:21:12 51°12.442 2°49.106 -999 2.793077 30.233935 4.140324
2006-03-03 08:21:17 51°12.434 2°49.077 -999 2.797523 30.286043 4.140324
2006-03-03 08:21:22 51°12.426 2°49.048 -999 2.799694 30.310088 4.207742
2006-03-03 08:21:27 51°12.419 2°49.019 -999 2.797833 30.285097 4.207742
2006-03-03 08:21:32 51°12.41 2°48.99 -999 2.794525 30.245632 4.207742
2006-03-03 08:21:37 51°12.402 2°48.961 -999 2.794525 30.245632 4.207742
2006-03-03 08:21:42 51°12.393 2°48.932 -999 2.800831 30.320867 4.241452
2006-03-03 08:21:47 51°12.385 2°48.903 -999 2.795145 30.25396 4.241452
2006-03-03 08:21:53 51°12.374 2°48.869 -999 2.794008 30.239467 4.207742
2006-03-03 08:21:57 51°12.367 2°48.847 -999 2.799074 30.301757 4.174033
2006-03-03 08:22:02 51°12.358 2°48.818 -999 2.800831 30.325519 4.174033
2006-03-03 08:22:07 51°12.349 2°48.79 -999 2.800831 30.325519 4.174033
2006-03-03 08:22:12 51°12.34 2°48.762 -999 2.794731 30.254597 4.140324
2006-03-03 08:22:17 51°12.33 2°48.734 -999 2.789045 30.188622 4.106614
2006-03-03 08:22:22 51°12.32 2°48.706 -999 2.790389 30.206507 4.072905
2006-03-03 08:22:27 51°12.311 2°48.678 -999 2.797213 30.28792 4.072905
2006-03-03 08:22:32 51°12.302 2°48.65 -999 2.794214 30.253073 4.039195
2006-03-03 08:22:37 51°12.294 2°48.621 -999 2.794214 30.253073 4.039195
2006-03-03 08:22:42 51°12.286 2°48.591 -999 2.794835 30.263261 4.039195
2006-03-03 08:22:47 51°12.278 2°48.562 -999 2.794628 30.261723 4.039195
2006-03-03 08:22:52 51°12.271 2°48.532 -999 2.792974 30.242912 4.005486
2006-03-03 08:22:57 51°12.263 2°48.503 -999 2.795869 30.278388 4.005486
2006-03-03 08:23:02 51°12.256 2°48.474 -999 2.797109 30.293195 4.005486
2006-03-03 08:23:07 51°12.248 2°48.445 -999 2.797109 30.293195 4.005486
2006-03-03 08:23:12 51°12.24 2°48.416 -999 2.797833 30.300903 4.005486
2006-03-03 08:23:17 51°12.232 2°48.387 -999 2.795972 30.277762 4.005486
2006-03-03 08:23:22 51°12.223 2°48.358 -999 2.794938 30.264495 4.005486
2006-03-03 08:23:27 51°12.215 2°48.329 -999 2.799901 30.323722 4.005486
2006-03-03 08:23:32 51°12.206 2°48.3 -999 2.789252 30.196649 4.005486
2006-03-03 08:23:37 51°12.198 2°48.272 -999 2.789252 30.196649 4.005486
2006-03-03 08:23:42 51°12.189 2°48.243 -999 2.79897 30.313547 4.005486
2006-03-03 08:23:47 51°12.179 2°48.215 -999 2.793181 30.245379 4.005486
2006-03-03 08:23:52 51°12.171 2°48.186 -999 2.791113 30.221634 4.005486
2006-03-03 08:23:57 51°12.162 2°48.158 -999 2.797626 30.298435 4.005486
2006-03-03 08:24:02 51°12.153 2°48.129 -999 2.792147 30.233043 4.005486
2006-03-03 08:24:07 51°12.144 2°48.101 -999 2.792147 30.233043 4.005486
2006-03-03 08:24:12 51°12.136 2°48.072 -999 2.796075 30.278996 4.005486
2006-03-03 08:24:17 51°12.128 2°48.042 -999 2.797419 30.295037 4.005486
2006-03-03 08:24:22 51°12.12 2°48.013 -999 2.794111 30.255554 4.005486
2006-03-03 08:24:27 51°12.113 2°47.984 -999 2.79132 30.221318 4.005486
2006-03-03 08:24:32 51°12.105 2°47.955 -999 2.796903 30.286078 4.039195
2006-03-03 08:24:37 51°12.097 2°47.926 -999 2.796903 30.286078 4.039195
2006-03-03 08:24:42 51°12.09 2°47.896 -999 2.797316 30.291013 4.039195
2006-03-03 08:24:47 51°12.082 2°47.867 -999 2.794731 30.261099 4.039195
2006-03-03 08:24:52 51°12.074 2°47.837 -999 2.796903 30.288867 4.039195
2006-03-03 08:24:57 51°12.066 2°47.808 -999 2.793904 30.254015 4.039195
2006-03-03 08:25:02 51°12.058 2°47.779 -999 2.789562 30.202204 4.005486
2006-03-03 08:25:07 51°12.05 2°47.75 -999 2.789562 30.202204 4.005486
2006-03-03 08:25:12 51°12.042 2°47.722 -999 2.795765 30.278083 4.005486
2006-03-03 08:25:17 51°12.033 2°47.693 -999 2.798247 30.308631 4.005486
2006-03-03 08:25:22 51°12.024 2°47.664 -999 2.79101 30.224113 4.005486
2006-03-03 08:25:27 51°12.015 2°47.636 -999 2.795869 30.282107 4.005486
2006-03-03 08:25:32 51°12.007 2°47.607 -999 2.796592 30.291675 4.005486
2006-03-03 08:25:37 51°11.999 2°47.579 -999 2.796592 30.291675 4.005486
2006-03-03 08:25:42 51°11.991 2°47.55 -999 2.793698 30.25898 4.005486
2006-03-03 08:25:47 51°11.983 2°47.52 -999 2.796696 30.296631 4.039195
2006-03-03 08:25:52 51°11.976 2°47.49 -999 2.794318 30.269173 4.005486
2006-03-03 08:25:57 51°11.969 2°47.461 -999 2.786254 30.172926 4.005486
2006-03-03 08:26:02 51°11.962 2°47.431 -999 2.797833 30.31114 4.005486
2006-03-03 08:26:07 51°11.956 2°47.401 -999 2.797833 30.31114 4.005486
2006-03-03 08:26:12 51°11.949 2°47.372 -999 2.796696 30.297561 4.005486
2006-03-03 08:26:17 51°11.941 2°47.342 -999 2.795248 30.280281 4.005486
2006-03-03 08:26:22 51°11.934 2°47.313 -999 2.797109 30.303429 4.039195
2006-03-03 08:26:27 51°11.926 2°47.283 -999 2.794111 30.267634 4.039195
2006-03-03 08:26:32 51°11.919 2°47.254 -999 2.792871 30.253753 4.039195
2006-03-03 08:26:37 51°11.911 2°47.225 -999 2.792871 30.253753 4.039195
2006-03-03 08:26:42 51°11.903 2°47.196 -999 2.801038 30.351274 4.039195
2006-03-03 08:26:47 51°11.895 2°47.167 -999 2.795249 30.284001 4.039195
2006-03-03 08:26:52 51°11.887 2°47.137 -999 2.795455 30.288331 4.039195
2006-03-03 08:26:57 51°11.879 2°47.109 -999 2.791423 30.242049 4.039195
2006-03-03 08:27:02 51°11.871 2°47.079 -999 2.793284 30.267057 4.039195
2006-03-03 08:27:07 51°11.863 2°47.05 -999 2.793284 30.267057 4.039195
2006-03-03 08:27:12 51°11.856 2°47.021 -999 2.792354 30.257805 4.005486
2006-03-03 08:27:17 51°11.849 2°46.991 -999 2.793801 30.276951 4.005486
2006-03-03 08:27:22 51°11.842 2°46.961 -999 2.792664 30.265229 4.005486
2006-03-03 08:27:27 51°11.835 2°46.931 -999 2.787702 30.207826 4.005486
2006-03-03 08:27:32 51°11.828 2°46.902 -999 2.790493 30.242089 4.005486
2006-03-03 08:27:37 51°11.821 2°46.872 -999 2.790493 30.242089 4.005486
2006-03-03 08:27:42 51°11.814 2°46.842 -999 2.793388 30.275733 3.971777
2006-03-03 08:27:47 51°11.806 2°46.813 -999 2.789976 30.234057 4.005486
2006-03-03 08:27:52 51°11.799 2°46.784 -999 2.790803 30.244863 4.005486
2006-03-03 08:27:57 51°11.791 2°46.755 -999 2.795042 30.295491 4.005486
2006-03-03 08:28:02 51°11.783 2°46.726 -999 2.785014 30.176658 4.005486
2006-03-03 08:28:07 51°11.774 2°46.697 -999 2.785014 30.176658 4.005486
2006-03-03 08:28:12 51°11.766 2°46.667 -999 2.791734 30.257836 3.971777
2006-03-03 08:28:17 51°11.758 2°46.639 -999 2.783876 30.165862 4.005486
2006-03-03 08:28:22 51°11.751 2°46.609 -999 2.786564 30.199815 4.005486
2006-03-03 08:28:27 51°11.743 2°46.58 -999 2.793491 30.284413 4.005486
2006-03-03 08:28:32 51°11.736 2°46.55 -999 2.78429 30.175437 4.005486
2006-03-03 08:28:37 51°11.728 2°46.521 -999 2.78429 30.175437 4.005486
2006-03-03 08:28:42 51°11.721 2°46.491 -999 2.787081 30.209703 4.005486
2006-03-03 08:28:47 51°11.714 2°46.462 -999 2.790183 30.245821 4.005486
2006-03-03 08:28:52 51°11.707 2°46.432 -999 2.789873 30.241186 4.005486
2006-03-03 08:28:57 51°11.7 2°46.402 -999 2.793078 30.279473 3.971777
2006-03-03 08:29:02 51°11.693 2°46.372 -999 2.794111 30.293687 3.971777
2006-03-03 08:29:07 51°11.686 2°46.343 -999 2.794111 30.293687 3.971777
2006-03-03 08:29:12 51°11.679 2°46.313 -999 2.793905 30.290285 3.971777
2006-03-03 08:29:17 51°11.672 2°46.284 -999 2.790493 30.249526 3.971777
2006-03-03 08:29:22 51°11.664 2°46.254 -999 2.795042 30.302942 3.971777
2006-03-03 08:29:27 51°11.657 2°46.225 -999 2.781602 30.142413 3.971777
2006-03-03 08:29:32 51°11.649 2°46.196 -999 2.787908 30.218653 3.971777
2006-03-03 08:29:37 51°11.642 2°46.166 -999 2.787908 30.218653 3.971777
2006-03-03 08:29:42 51°11.633 2°46.137 -999 2.795559 30.310982 3.971777
2006-03-03 08:29:47 51°11.626 2°46.108 -999 2.79866 30.348046 3.971777
2006-03-03 08:29:52 51°11.618 2°46.079 -999 2.793388 30.28504 3.971777
2006-03-03 08:29:57 51°11.611 2°46.049 -999 2.795042 30.305736 3.971777
2006-03-03 08:30:02 51°11.604 2°46.02 -999 2.796283 30.320562 3.971777
2006-03-03 08:30:07 51°11.597 2°45.99 -999 2.796283 30.320562 3.971777
2006-03-03 08:30:12 51°11.59 2°45.96 -999 2.794525 30.302354 3.971777
2006-03-03 08:30:17 51°11.583 2°45.93 -999 2.793491 30.291863 3.971777
2006-03-03 08:30:22 51°11.576 2°45.901 -999 2.793078 30.286921 3.971777
2006-03-03 08:30:27 51°11.568 2°45.871 -999 2.795662 30.317809 3.971777
2006-03-03 08:30:32 51°11.562 2°45.841 -999 2.795456 30.318135 3.971777
2006-03-03 08:30:37 51°11.554 2°45.812 -999 2.795456 30.318135 3.971777
2006-03-03 08:30:42 51°11.547 2°45.782 -999 2.79773 30.346255 3.971777
2006-03-03 08:30:47 51°11.54 2°45.752 -999 2.794732 30.312281 3.971777
2006-03-03 08:30:52 51°11.533 2°45.723 -999 2.793491 30.295589 3.971777
2006-03-03 08:30:57 51°11.525 2°45.693 -999 2.791734 30.274584 3.971777
2006-03-03 08:31:02 51°11.517 2°45.664 -999 2.796903 30.336368 3.971777
2006-03-03 08:31:07 51°11.51 2°45.635 -999 2.796903 30.336368 3.971777
2006-03-03 08:31:12 51°11.501 2°45.606 -999 2.793388 30.297148 3.938067
2006-03-03 08:31:17 51°11.493 2°45.577 -999 2.786048 30.211286 3.971777
2006-03-03 08:31:22 51°11.484 2°45.548 -999 2.792147 30.285114 3.938067
2006-03-03 08:31:27 51°11.476 2°45.52 -999 2.794835 30.319111 3.938067
2006-03-03 08:31:32 51°11.467 2°45.491 -999 2.792354 30.290381 3.938067
2006-03-03 08:31:37 51°11.459 2°45.462 -999 2.792354 30.290381 3.938067
2006-03-03 08:31:42 51°11.45 2°45.434 -999 2.787702 30.235702 3.938067
2006-03-03 08:31:47 51°11.442 2°45.405 -999 2.798247 30.361772 3.938067
2006-03-03 08:31:52 51°11.435 2°45.376 -999 2.797937 30.358063 3.904358
2006-03-03 08:31:57 51°11.427 2°45.346 -999 2.798971 30.369492 3.904358
2006-03-03 08:32:02 51°11.419 2°45.317 -999 2.801142 30.392652 3.904358
2006-03-03 08:32:07 51°11.412 2°45.287 -999 2.801142 30.392652 3.904358
2006-03-03 08:32:12 51°11.404 2°45.258 -999 2.793595 30.29962 3.904358
2006-03-03 08:32:17 51°11.397 2°45.228 -999 2.804554 30.426904 3.904358
2006-03-03 08:32:22 51°11.389 2°45.199 -999 2.795145 30.311631 3.904358
2006-03-03 08:32:27 51°11.381 2°45.17 -999 2.804554 30.420356 3.904358
2006-03-03 08:32:32 51°11.374 2°45.14 -999 2.80507 30.422795 3.904358
2006-03-03 08:32:37 51°11.365 2°45.111 -999 2.80507 30.422795 3.904358
2006-03-03 08:32:42 51°11.357 2°45.083 -999 2.807242 30.446879 3.904358
2006-03-03 08:32:47 51°11.349 2°45.054 -999 2.808275 30.45643 3.870648
2006-03-03 08:32:52 51°11.34 2°45.025 -999 2.813135 30.511713 3.904358
2006-03-03 08:32:57 51°11.331 2°44.997 -999 2.813755 30.514442 3.904358
2006-03-03 08:33:02 51°11.323 2°44.968 -999 2.812514 30.497736 3.870648
2006-03-03 08:33:07 51°11.315 2°44.939 -999 2.812514 30.497736 3.870648
2006-03-03 08:33:12 51°11.307 2°44.909 -999 2.816857 30.54777 3.904358
2006-03-03 08:33:17 51°11.299 2°44.88 -999 2.814479 30.517467 3.870648
2006-03-03 08:33:22 51°11.291 2°44.852 -999 2.814375 30.514357 3.870648
2006-03-03 08:33:27 51°11.283 2°44.823 -999 2.812824 30.493948 3.870648
2006-03-03 08:33:32 51°11.276 2°44.793 -999 2.81758 30.55079 3.870648
2006-03-03 08:33:37 51°11.268 2°44.764 -999 2.81758 30.55079 3.870648
2006-03-03 08:33:42 51°11.261 2°44.735 -999 2.817994 30.554795 3.870648
2006-03-03 08:33:47 51°11.253 2°44.705 -999 2.816133 30.530675 3.904358
2006-03-03 08:33:52 51°11.246 2°44.676 -999 2.817167 30.541156 3.870648
2006-03-03 08:33:57 51°11.238 2°44.647 -999 2.819958 30.571704 3.904358
2006-03-03 08:34:02 51°11.231 2°44.618 -999 2.820268 30.573533 3.904358
2006-03-03 08:34:07 51°11.223 2°44.589 -999 2.820268 30.573533 3.904358
2006-03-03 08:34:12 51°11.215 2°44.559 -999 2.821096 30.580601 3.904358
2006-03-03 08:34:17 51°11.208 2°44.53 -999 2.822129 30.591079 3.904358
2006-03-03 08:34:22 51°11.199 2°44.501 -999 2.810756 30.455206 3.904358
2006-03-03 08:34:27 51°11.192 2°44.472 -999 2.813134 30.485481 3.904358
2006-03-03 08:34:32 51°11.183 2°44.444 -999 2.821819 30.59019 3.904358
2006-03-03 08:34:37 51°11.175 2°44.415 -999 2.821819 30.59019 3.904358
2006-03-03 08:34:42 51°11.167 2°44.387 -999 2.821923 30.592365 3.904358
2006-03-03 08:34:47 51°11.158 2°44.358 -999 2.818304 30.550057 3.904358
2006-03-03 08:34:52 51°11.15 2°44.33 -999 2.814272 30.505624 3.904358
2006-03-03 08:34:57 51°11.141 2°44.301 -999 2.812204 30.483726 3.904358
2006-03-03 08:35:02 51°11.134 2°44.272 -999 2.813962 30.504728 3.904358
2006-03-03 08:35:07 51°11.126 2°44.243 -999 2.813962 30.504728 3.904358
2006-03-03 08:35:12 51°11.118 2°44.214 -999 2.820062 30.578574 3.904358
2006-03-03 08:35:17 51°11.111 2°44.184 -999 2.810033 30.458719 3.904358
2006-03-03 08:35:22 51°11.104 2°44.155 -999 2.808896 30.446067 3.904358
2006-03-03 08:35:27 51°11.097 2°44.125 -999 2.814789 30.51555 3.938067
2006-03-03 08:35:32 51°11.091 2°44.095 -999 2.812618 30.488667 3.971777
2006-03-03 08:35:37 51°11.084 2°44.066 -999 2.812618 30.488667 3.971777
2006-03-03 08:35:42 51°11.078 2°44.035 -999 2.820165 30.576992 4.005486
2006-03-03 08:35:47 51°11.071 2°44.005 -999 2.817063 30.536169 4.039195
2006-03-03 08:35:52 51°11.064 2°43.976 -999 2.821302 30.583073 4.072905
2006-03-03 08:35:57 51°11.057 2°43.946 -999 2.82244 30.591968 4.106614
2006-03-03 08:36:02 51°11.05 2°43.917 -999 2.825645 30.62745 4.140324
2006-03-03 08:36:07 51°11.042 2°43.888 -999 2.825645 30.62745 4.140324
2006-03-03 08:36:12 51°11.034 2°43.859 -999 2.825128 30.616573 4.140324
2006-03-03 08:36:17 51°11.027 2°43.83 -999 2.825438 30.6184 4.140324
2006-03-03 08:36:22 51°11.019 2°43.801 -999 2.82244 30.585395 4.106614
2006-03-03 08:36:27 51°11.012 2°43.771 -999 2.82337 30.603088 4.072905
2006-03-03 08:36:32 51°11.004 2°43.742 -999 2.818614 30.553764 4.039195
2006-03-03 08:36:37 51°10.997 2°43.713 -999 2.818614 30.553764 4.039195
2006-03-03 08:36:42 51°10.99 2°43.683 -999 2.814375 30.506859 4.005486
2006-03-03 08:36:47 51°10.984 2°43.653 -999 2.817063 30.541796 4.005486
2006-03-03 08:36:52 51°10.977 2°43.623 -999 2.808379 30.440826 3.971777
2006-03-03 08:36:57 51°10.971 2°43.594 -999 2.810136 30.464633 3.971777
2006-03-03 08:37:02 51°10.964 2°43.564 -999 2.816753 30.54278 3.971777
2006-03-03 08:37:08 51°10.956 2°43.528 -999 2.816753 30.54278 3.971777
2006-03-03 08:37:12 51°10.95 2°43.505 -999 2.811997 30.485 3.971777
2006-03-03 08:37:17 51°10.943 2°43.475 -999 2.814582 30.514953 3.938067
2006-03-03 08:37:22 51°10.936 2°43.446 -999 2.818304 30.558503 3.971777
2006-03-03 08:37:27 51°10.928 2°43.417 -999 2.799797 30.335527 3.971777
2006-03-03 08:37:32 51°10.921 2°43.387 -999 2.813962 30.503791 3.971777
2006-03-03 08:37:37 51°10.913 2°43.358 -999 2.813962 30.503791 3.971777
2006-03-03 08:37:42 51°10.906 2°43.329 -999 2.817787 30.547632 3.971777
2006-03-03 08:37:47 51°10.899 2°43.3 -999 2.821406 30.590883 3.971777
2006-03-03 08:37:52 51°10.891 2°43.271 -999 2.815616 30.51981 3.938067
2006-03-03 08:37:57 51°10.884 2°43.241 -999 2.819855 30.570468 3.938067
2006-03-03 08:38:02 51°10.877 2°43.211 -999 2.820579 30.578179 3.938067
2006-03-03 08:38:07 51°10.871 2°43.182 -999 2.820579 30.578179 3.938067
2006-03-03 08:38:12 51°10.865 2°43.152 -999 2.817167 30.536467 3.938067
2006-03-03 08:38:17 51°10.858 2°43.122 -999 2.821199 30.580898 4.005486
2006-03-03 08:38:22 51°10.852 2°43.092 -999 2.814272 30.491577 4.106614
2006-03-03 08:38:27 51°10.846 2°43.062 -999 2.815512 30.498906 4.140324
2006-03-03 08:38:32 51°10.84 2°43.032 -999 2.82337 30.584309 4.241452
2006-03-03 08:38:37 51°10.833 2°43.003 -999 2.82337 30.584309 4.241452
2006-03-03 08:38:42 51°10.826 2°42.973 -999 2.808171 30.395408 4.34258
2006-03-03 08:38:47 51°10.819 2°42.944 -999 2.834123 30.697693 4.443708
2006-03-03 08:38:52 51°10.811 2°42.915 -999 2.836087 30.713622 4.511127
2006-03-03 08:38:57 51°10.803 2°42.886 -999 2.838775 30.741015 4.578546
2006-03-03 08:39:02 51°10.796 2°42.857 -999 2.836397 30.707913 4.578546
2006-03-03 08:39:07 51°10.788 2°42.828 -999 2.836397 30.707913 4.578546
2006-03-03 08:39:12 51°10.781 2°42.798 -999 2.843221 30.785619 4.612255
2006-03-03 08:39:17 51°10.773 2°42.769 -999 2.842084 30.771095 4.544836
2006-03-03 08:39:22 51°10.766 2°42.74 -999 2.832468 30.657255 4.511127
2006-03-03 08:39:27 51°10.759 2°42.71 -999 2.838258 30.72919 4.443708
2006-03-03 08:39:32 51°10.753 2°42.681 -999 2.838568 30.733835 4.443708
2006-03-03 08:39:37 51°10.746 2°42.651 -999 2.838568 30.733835 4.443708
2006-03-03 08:39:43 51°10.739 2°42.615 -999 2.840223 30.753587 4.409999
2006-03-03 08:39:47 51°10.734 2°42.591 -999 2.837535 30.720549 4.409999
2006-03-03 08:39:52 51°10.728 2°42.561 -999 2.839602 30.742411 4.443708
2006-03-03 08:39:57 51°10.721 2°42.531 -999 2.840947 30.755632 4.511127
2006-03-03 08:40:02 51°10.715 2°42.501 -999 2.839706 30.736111 4.578546
2006-03-03 08:40:07 51°10.708 2°42.472 -999 2.839706 30.736111 4.578546
2006-03-03 08:40:12 51°10.702 2°42.441 -999 2.840016 30.734164 4.645965
2006-03-03 08:40:17 51°10.695 2°42.412 -999 2.840326 30.732218 4.679674
2006-03-03 08:40:22 51°10.688 2°42.383 -999 2.850045 30.841601 4.713383
2006-03-03 08:40:27 51°10.681 2°42.353 -999 2.843738 30.760687 4.713383
2006-03-03 08:40:33 51°10.673 2°42.318 -999 2.84746 30.801322 4.713383
2006-03-03 08:40:37 51°10.667 2°42.294 -999 2.84746 30.801322 4.713383
2006-03-03 08:40:42 51°10.66 2°42.264 -999 2.851596 30.848778 4.713383
2006-03-03 08:40:47 51°10.653 2°42.234 -999 2.85263 30.858282 4.679674
2006-03-03 08:40:52 51°10.646 2°42.205 -999 2.854388 30.877365 4.679674
2006-03-03 08:40:57 51°10.64 2°42.176 -999 2.852113 30.848338 4.679674
2006-03-03 08:41:02 51°10.633 2°42.146 -999 2.850872 30.831651 4.713383
2006-03-03 08:41:07 51°10.626 2°42.116 -999 2.850872 30.831651 4.713383
2006-03-03 08:41:12 51°10.619 2°42.086 -999 2.854801 30.876631 4.713383
2006-03-03 08:41:17 51°10.613 2°42.056 -999 2.853561 30.858998 4.747093
2006-03-03 08:41:22 51°10.606 2°42.027 -999 2.849425 30.806845 4.713383
2006-03-03 08:41:27 51°10.599 2°41.997 -999 2.850355 30.815114 4.747093
2006-03-03 08:41:32 51°10.592 2°41.968 -999 2.854077 30.854781 4.747093
2006-03-03 08:41:37 51°10.585 2°41.938 -999 2.854077 30.854781 4.747093
2006-03-03 08:41:42 51°10.577 2°41.91 -999 2.856249 30.876897 4.747093
2006-03-03 08:41:47 51°10.569 2°41.88 -999 2.857696 30.892268 4.747093
2006-03-03 08:41:52 51°10.562 2°41.852 -999 2.863073 30.954495 4.780802
2006-03-03 08:41:57 51°10.553 2°41.823 -999 2.863693 30.960947 4.747093
2006-03-03 08:42:02 51°10.545 2°41.795 -999 2.856662 30.874276 4.713383
2006-03-03 08:42:07 51°10.537 2°41.766 -999 2.856662 30.874276 4.713383
2006-03-03 08:42:12 51°10.529 2°41.738 -999 2.861625 30.932503 4.679674
2006-03-03 08:42:17 51°10.521 2°41.708 -999 2.851286 30.81019 4.645965
2006-03-03 08:42:22 51°10.512 2°41.68 -999 2.860902 30.924818 4.612255
2006-03-03 08:42:27 51°10.505 2°41.651 -999 2.856145 30.868113 4.578546
2006-03-03 08:42:32 51°10.497 2°41.622 -999 2.862453 30.943312 4.578546
2006-03-03 08:42:37 51°10.49 2°41.593 -999 2.862453 30.943312 4.578546
2006-03-03 08:42:42 51°10.483 2°41.564 -999 2.861936 30.937147 4.544836
2006-03-03 08:42:47 51°10.476 2°41.534 -999 2.860695 30.922352 4.578546
2006-03-03 08:42:52 51°10.469 2°41.504 -999 2.862349 30.942079 4.578546
2006-03-03 08:42:57 51°10.462 2°41.475 -999 2.860488 30.919887 4.578546
2006-03-03 08:43:02 51°10.455 2°41.445 -999 2.856352 30.870578 4.612255
2006-03-03 08:43:07 51°10.448 2°41.416 -999 2.856352 30.870578 4.612255
2006-03-03 08:43:12 51°10.441 2°41.387 -999 2.866175 30.986756 4.612255
2006-03-03 08:43:17 51°10.434 2°41.357 -999 2.865244 30.973764 4.645965
2006-03-03 08:43:22 51°10.427 2°41.328 -999 2.86297 30.944747 4.645965
2006-03-03 08:43:27 51°10.419 2°41.299 -999 2.867933 31.002034 4.679674
2006-03-03 08:43:32 51°10.411 2°41.27 -999 2.865555 30.972729 4.713383
2006-03-03 08:43:37 51°10.404 2°41.241 -999 2.865555 30.972729 4.713383
2006-03-03 08:43:42 51°10.396 2°41.212 -999 2.868657 31.008771 4.713383
2006-03-03 08:43:47 51°10.388 2°41.184 -999 2.862866 30.939732 4.747093
2006-03-03 08:43:52 51°10.38 2°41.155 -999 2.865761 30.976142 4.747093
2006-03-03 08:43:57 51°10.372 2°41.126 -999 2.862349 30.936405 4.780802
2006-03-03 08:44:02 51°10.364 2°41.097 -999 2.867312 30.997478 4.780802
2006-03-03 08:44:07 51°10.356 2°41.068 -999 2.867312 30.997478 4.780802
2006-03-03 08:44:12 51°10.349 2°41.039 -999 2.851803 30.81541 4.814512
2006-03-03 08:44:17 51°10.342 2°41.01 -999 2.859868 30.915325 4.848221
2006-03-03 08:44:22 51°10.336 2°40.98 -999 2.860695 30.926134 4.848221
2006-03-03 08:44:27 51°10.329 2°40.951 -999 2.847667 30.774591 4.91564
2006-03-03 08:44:32 51°10.323 2°40.921 -999 2.860695 30.932754 4.983059
2006-03-03 08:44:37 51°10.316 2°40.892 -999 2.860695 30.932754 4.983059
2006-03-03 08:44:42 51°10.309 2°40.863 -999 2.856973 30.890249 4.983059
2006-03-03 08:44:47 51°10.302 2°40.833 -999 2.85842 30.908459 5.050477
2006-03-03 08:44:52 51°10.296 2°40.804 -999 2.858007 30.904471 5.084187
2006-03-03 08:44:57 51°10.289 2°40.775 -999 2.836086 30.643172 5.117896
2006-03-03 08:45:02 51°10.283 2°40.745 -999 2.859351 30.921449 5.117896
2006-03-03 08:45:07 51°10.275 2°40.716 -999 2.859351 30.921449 5.117896
2006-03-03 08:45:12 51°10.269 2°40.686 -999 2.862143 30.954753 5.117896
2006-03-03 08:45:17 51°10.262 2°40.657 -999 2.858627 30.912816 5.117896
2006-03-03 08:45:22 51°10.255 2°40.627 -999 2.857283 30.898673 5.117896
2006-03-03 08:45:27 51°10.248 2°40.598 -999 2.855628 30.88083 5.117896
2006-03-03 08:45:32 51°10.241 2°40.569 -999 2.855525 30.883376 5.117896
2006-03-03 08:45:37 51°10.234 2°40.54 -999 2.855525 30.883376 5.117896
2006-03-03 08:45:42 51°10.228 2°40.51 -999 2.850562 30.826065 5.117896
2006-03-03 08:45:47 51°10.22 2°40.481 -999 2.855008 30.881932 5.117896
2006-03-03 08:45:52 51°10.214 2°40.451 -999 2.856249 30.898626 5.117896
2006-03-03 08:45:57 51°10.207 2°40.422 -999 2.853871 30.874031 5.117896
2006-03-03 08:46:03 51°10.199 2°40.387 -999 2.848804 30.815472 5.117896
2006-03-03 08:46:07 51°10.193 2°40.363 -999 2.848804 30.815472 5.117896
2006-03-03 08:46:12 51°10.186 2°40.334 -999 2.848494 30.815544 5.084187
2006-03-03 08:46:17 51°10.179 2°40.305 -999 2.840119 30.716582 5.050477
2006-03-03 08:46:22 51°10.173 2°40.275 -999 2.844255 30.768738 5.050477
2006-03-03 08:46:27 51°10.165 2°40.246 -999 2.849218 30.827954 5.050477
2006-03-03 08:46:32 51°10.158 2°40.217 -999 2.851079 30.851108 5.050477
2006-03-03 08:46:37 51°10.151 2°40.188 -999 2.851079 30.851108 5.050477
2006-03-03 08:46:42 51°10.143 2°40.159 -999 2.846736 30.799287 5.050477
2006-03-03 08:46:47 51°10.136 2°40.13 -999 2.843221 30.756403 5.050477
2006-03-03 08:46:52 51°10.128 2°40.101 -999 2.852113 30.861558 5.084187
2006-03-03 08:46:57 51°10.12 2°40.073 -999 2.843945 30.763154 5.050477
2006-03-03 08:47:02 51°10.112 2°40.044 -999 2.851183 30.849509 5.050477
2006-03-03 08:47:07 51°10.105 2°40.014 -999 2.851183 30.849509 5.050477
2006-03-03 08:47:12 51°10.097 2°39.986 -999 2.850149 30.83717 5.050477
2006-03-03 08:47:17 51°10.09 2°39.956 -999 2.84777 30.809738 4.983059
2006-03-03 08:47:22 51°10.083 2°39.927 -999 2.849321 30.831075 4.949349
2006-03-03 08:47:27 51°10.076 2°39.898 -999 2.840429 30.725924 4.91564
2006-03-03 08:47:32 51°10.069 2°39.868 -999 2.846633 30.803711 4.88193
2006-03-03 08:47:37 51°10.063 2°39.838 -999 2.846633 30.803711 4.88193
2006-03-03 08:47:42 51°10.056 2°39.809 -999 2.845392 30.79079 4.88193
2006-03-03 08:47:47 51°10.05 2°39.779 -999 2.84622 30.799718 4.88193
2006-03-03 08:47:52 51°10.043 2°39.749 -999 2.839499 30.717646 4.88193
2006-03-03 08:47:57 51°10.037 2°39.72 -999 2.842187 30.748775 4.91564
2006-03-03 08:48:02 51°10.029 2°39.69 -999 2.842394 30.750301 4.91564
2006-03-03 08:48:07 51°10.022 2°39.661 -999 2.842394 30.750301 4.91564
2006-03-03 08:48:12 51°10.014 2°39.633 -999 2.84653 30.801534 4.91564
2006-03-03 08:48:17 51°10.006 2°39.604 -999 2.843531 30.766696 4.949349
2006-03-03 08:48:23 51°9.996 2°39.57 -999 2.840119 30.725987 4.983059
2006-03-03 08:48:27 51°9.989 2°39.548 -999 2.84074 30.73527 5.016768
2006-03-03 08:48:32 51°9.981 2°39.52 -999 2.844048 30.775692 5.050477
2006-03-03 08:48:37 51°9.972 2°39.492 -999 2.844048 30.775692 5.050477
2006-03-03 08:48:42 51°9.963 2°39.463 -999 2.837328 30.697385 5.050477
2006-03-03 08:48:47 51°9.955 2°39.435 -999 2.839912 30.731048 5.050477
2006-03-03 08:48:53 51°9.946 2°39.401 -999 2.840223 30.736632 5.084187
2006-03-03 08:48:57 51°9.94 2°39.377 -999 2.836914 30.698091 5.084187
2006-03-03 08:49:02 51°9.932 2°39.348 -999 2.834329 30.666311 5.084187
2006-03-03 08:49:07 51°9.925 2°39.319 -999 2.834329 30.666311 5.084187
2006-03-03 08:49:12 51°9.918 2°39.29 -999 2.83009 30.614805 5.117896
2006-03-03 08:49:17 51°9.911 2°39.261 -999 2.837121 30.697738 5.117896
2006-03-03 08:49:22 51°9.904 2°39.232 -999 2.832261 30.636012 5.151606
2006-03-03 08:49:27 51°9.897 2°39.202 -999 2.837638 30.697325 5.185315
2006-03-03 08:49:32 51°9.89 2°39.173 -999 2.8365 30.679061 5.219024
2006-03-03 08:49:37 51°9.882 2°39.144 -999 2.8365 30.679061 5.219024
2006-03-03 08:49:43 51°9.874 2°39.108 -999 2.843324 30.756695 5.286443
2006-03-03 08:49:47 51°9.868 2°39.085 -999 2.842394 30.743712 5.320153
2006-03-03 08:49:52 51°9.861 2°39.056 -999 2.84715 30.797622 5.320153
2006-03-03 08:49:57 51°9.854 2°39.026 -999 2.845082 30.772012 5.320153
2006-03-03 08:50:02 51°9.846 2°38.997 -999 2.844462 30.762729 5.320153
2006-03-03 08:50:07 51°9.839 2°38.969 -999 2.844462 30.762729 5.320153
2006-03-03 08:50:12 51°9.831 2°38.939 -999 2.845289 30.771653 5.320153
2006-03-03 08:50:17 51°9.823 2°38.91 -999 2.84653 30.78551 5.320153
2006-03-03 08:50:22 51°9.815 2°38.882 -999 2.840016 30.70689 5.286443
2006-03-03 08:50:27 51°9.807 2°38.853 -999 2.845599 30.774411 5.286443
2006-03-03 08:50:32 51°9.799 2°38.825 -999 2.847874 30.801543 5.286443
2006-03-03 08:50:37 51°9.79 2°38.797 -999 2.847874 30.801543 5.286443
2006-03-03 08:50:42 51°9.781 2°38.769 -999 2.845496 30.773178 5.286443
2006-03-03 08:50:47 51°9.772 2°38.741 -999 2.847357 30.793491 5.320153
2006-03-03 08:50:52 51°9.763 2°38.712 -999 2.842911 30.74047 5.286443
2006-03-03 08:50:57 51°9.754 2°38.684 -999 2.841463 30.723209 5.286443
2006-03-03 08:51:03 51°9.744 2°38.651 -999 2.844772 30.763605 5.252734
2006-03-03 08:51:07 51°9.738 2°38.628 -999 2.844772 30.763605 5.252734
2006-03-03 08:51:12 51°9.729 2°38.599 -999 2.844462 30.760847 5.252734
2006-03-03 08:51:17 51°9.722 2°38.57 -999 2.844668 30.763313 5.219024
2006-03-03 08:51:22 51°9.714 2°38.541 -999 2.844358 30.759614 5.219024
2006-03-03 08:51:27 51°9.706 2°38.513 -999 2.844979 30.767012 5.219024
2006-03-03 08:51:32 51°9.699 2°38.484 -999 2.829883 30.585174 5.252734
2006-03-03 08:51:37 51°9.691 2°38.456 -999 2.829883 30.585174 5.252734
2006-03-03 08:51:42 51°9.684 2°38.43 -999 2.845496 30.771295 5.286443
2006-03-03 08:51:47 51°9.677 2°38.405 -999 2.842807 30.738296 5.320153
2006-03-03 08:51:52 51°9.671 2°38.381 -999 2.845496 30.770353 5.320153
2006-03-03 08:51:57 51°9.664 2°38.36 -999 2.845909 30.775285 5.353862
2006-03-03 08:52:02 51°9.659 2°38.339 -999 2.837224 30.67173 5.353862
2006-03-03 08:52:07 51°9.652 2°38.319 -999 2.837224 30.67173 5.353862
2006-03-03 08:52:12 51°9.646 2°38.301 -999 2.843634 30.7491 5.353862
2006-03-03 08:52:17 51°9.64 2°38.283 -999 2.84136 30.721976 5.353862
2006-03-03 08:52:22 51°9.634 2°38.266 -999 2.840016 30.70783 5.353862
2006-03-03 08:52:27 51°9.628 2°38.25 -999 2.835983 30.659755 5.353862
2006-03-03 08:52:32 51°9.622 2°38.235 -999 2.843117 30.746699 5.320153
2006-03-03 08:52:37 51°9.616 2°38.22 -999 2.843117 30.746699 5.320153
2006-03-03 08:52:43 51°9.609 2°38.202 -999 2.843221 30.749814 5.320153
2006-03-03 08:52:47 51°9.605 2°38.19 -999 2.842497 30.743064 5.320153
2006-03-03 08:52:52 51°9.599 2°38.175 -999 2.839085 30.702372 5.286443
2006-03-03 08:52:57 51°9.594 2°38.16 -999 2.831744 30.615784 5.252734
2006-03-03 08:53:02 51°9.588 2°38.146 -999 2.842394 30.742771 5.219024
2006-03-03 08:53:07 51°9.584 2°38.132 -999 2.842394 30.742771 5.219024
2006-03-03 08:53:12 51°9.579 2°38.118 -999 2.846219 30.788406 5.185315
2006-03-03 08:53:17 51°9.575 2°38.105 -999 2.838982 30.703018 5.185315
2006-03-03 08:53:22 51°9.571 2°38.091 -999 2.840326 30.719048 5.185315
2006-03-03 08:53:27 51°9.567 2°38.078 -999 2.838465 30.697793 5.151606
2006-03-03 08:53:32 51°9.563 2°38.065 -999 2.84229 30.74342 5.151606
2006-03-03 08:53:37 51°9.56 2°38.052 -999 2.84229 30.74342 5.151606
2006-03-03 08:53:42 51°9.557 2°38.04 -999 2.838878 30.703665 5.151606
2006-03-03 08:53:47 51°9.554 2°38.028 -999 2.837224 30.683936 5.151606
2006-03-03 08:53:52 51°9.55 2°38.017 -999 2.845909 30.787532 5.151606
2006-03-03 08:53:57 51°9.547 2°38.006 -999 2.846323 30.792467 5.151606
2006-03-03 08:54:02 51°9.544 2°37.996 -999 2.844048 30.766271 5.151606
2006-03-03 08:54:07 51°9.541 2°37.985 -999 2.844048 30.766271 5.151606
2006-03-03 08:54:12 51°9.538 2°37.976 -999 2.830503 30.605678 5.117896
2006-03-03 08:54:17 51°9.535 2°37.966 -999 2.839809 30.716644 5.117896
2006-03-03 08:54:22 51°9.532 2°37.957 -999 2.839912 30.717877 5.084187
2006-03-03 08:54:27 51°9.53 2°37.948 -999 2.844358 30.770913 5.084187
2006-03-03 08:54:33 51°9.526 2°37.939 -999 2.845392 30.783249 5.084187
2006-03-03 08:54:37 51°9.524 2°37.933 -999 2.845392 30.783249 5.084187
2006-03-03 08:54:42 51°9.521 2°37.926 -999 2.84777 30.812567 5.050477
2006-03-03 08:54:47 51°9.519 2°37.92 -999 2.843428 30.760753 5.050477
2006-03-03 08:54:52 51°9.517 2°37.916 -999 2.848494 30.822148 5.016768
2006-03-03 08:54:57 51°9.516 2°37.911 -999 2.840119 30.723165 4.983059
2006-03-03 08:55:02 51°9.515 2°37.908 -999 2.84684 30.804292 4.949349
2006-03-03 08:55:07 51°9.514 2°37.904 -999 2.84684 30.804292 4.949349
2006-03-03 08:55:12 51°9.514 2°37.901 -999 2.844048 30.771923 4.949349
2006-03-03 08:55:17 51°9.514 2°37.899 -999 2.848081 30.820043 4.91564
2006-03-03 08:55:22 51°9.514 2°37.896 -999 2.848908 30.829915 4.91564
2006-03-03 08:55:27 51°9.515 2°37.895 -999 2.840326 30.727513 4.91564
2006-03-03 08:55:32 51°9.515 2°37.893 -999 2.84229 30.751892 4.88193
2006-03-03 08:55:37 51°9.516 2°37.891 -999 2.84229 30.751892 4.88193
2006-03-03 08:55:43 51°9.516 2°37.889 -999 2.846116 30.795656 4.88193
2006-03-03 08:55:48 51°9.517 2°37.887 -999 2.844669 30.778383 4.88193
2006-03-03 08:55:53 51°9.517 2°37.885 -999 2.837948 30.698205 4.91564
2006-03-03 08:55:58 51°9.517 2°37.883 -999 2.84777 30.814454 4.91564
2006-03-03 08:56:03 51°9.518 2°37.881 -999 2.845806 30.791011 4.91564
2006-03-03 08:56:08 51°9.518 2°37.879 -999 2.845806 30.791011 4.91564
2006-03-03 08:56:12 51°9.518 2°37.878 -999 2.848287 30.818736 4.949349
2006-03-03 08:56:17 51°9.518 2°37.876 -999 2.844669 30.774614 4.949349
2006-03-03 08:56:22 51°9.518 2°37.874 -999 2.830607 30.605036 4.983059
2006-03-03 08:56:27 51°9.518 2°37.872 -999 2.845496 30.781656 4.983059
2006-03-03 08:56:33 51°9.519 2°37.87 -999 2.853354 30.875421 4.983059
2006-03-03 08:56:37 51°9.519 2°37.868 -999 2.853354 30.875421 4.983059
2006-03-03 08:56:42 51°9.519 2°37.866 -999 2.846323 30.790581 4.983059
2006-03-03 08:56:47 51°9.519 2°37.864 -999 2.851906 30.856257 4.983059
2006-03-03 08:56:52 51°9.519 2°37.862 -999 2.850045 30.833105 4.983059
2006-03-03 08:56:57 51°9.519 2°37.86 -999 2.850666 30.840507 4.983059
2006-03-03 08:57:02 51°9.519 2°37.858 -999 2.85263 30.864894 4.983059
2006-03-03 08:57:07 51°9.519 2°37.856 -999 2.85263 30.864894 4.983059
2006-03-03 08:57:12 51°9.52 2°37.854 -999 2.85263 30.863949 4.983059
2006-03-03 08:57:17 51°9.52 2°37.852 -999 2.848391 30.812424 5.016768
2006-03-03 08:57:23 51°9.52 2°37.849 -999 2.851596 30.849723 5.050477
2006-03-03 08:57:27 51°9.52 2°37.848 -999 2.85201 30.853713 5.084187
2006-03-03 08:57:32 51°9.52 2°37.845 -999 2.856456 30.905822 5.084187
2006-03-03 08:57:37 51°9.52 2°37.843 -999 2.856456 30.905822 5.084187
2006-03-03 08:57:42 51°9.52 2°37.841 -999 2.85294 30.861983 5.084187
2006-03-03 08:57:47 51°9.52 2°37.839 -999 2.85718 30.911622 5.117896
2006-03-03 08:57:52 51°9.52 2°37.836 -999 2.858007 30.919601 5.117896
2006-03-03 08:57:57 51°9.52 2°37.834 -999 2.855525 30.8881 5.117896
2006-03-03 08:58:02 51°9.52 2°37.832 -999 2.857903 30.915529 5.117896
2006-03-03 08:58:07 51°9.52 2°37.83 -999 2.857903 30.915529 5.117896
2006-03-03 08:58:12 51°9.52 2°37.827 -999 2.851493 30.83905 5.151606
2006-03-03 08:58:17 51°9.52 2°37.825 -999 2.859558 30.93527 5.151606
2006-03-03 08:58:22 51°9.521 2°37.823 -999 2.857903 30.915529 5.151606
2006-03-03 08:58:27 51°9.52 2°37.82 -999 2.854801 30.87852 5.151606
2006-03-03 08:58:32 51°9.52 2°37.817 -999 2.847357 30.789723 5.151606
2006-03-03 08:58:37 51°9.519 2°37.814 -999 2.847357 30.789723 5.151606
2006-03-03 08:58:42 51°9.519 2°37.811 -999 2.851079 30.833174 5.151606
2006-03-03 08:58:47 51°9.519 2°37.808 -999 2.848701 30.803868 5.151606
2006-03-03 08:58:52 51°9.518 2°37.806 -999 2.856662 30.897889 5.185315
2006-03-03 08:58:57 51°9.518 2°37.803 -999 2.853767 30.863352 5.185315
2006-03-03 08:59:02 51°9.517 2°37.8 -999 2.857179 30.903111 5.219024
2006-03-03 08:59:07 51°9.517 2°37.797 -999 2.857179 30.903111 5.219024
2006-03-03 08:59:12 51°9.516 2°37.794 -999 2.856042 30.888598 5.185315
2006-03-03 08:59:17 51°9.516 2°37.791 -999 2.859247 30.924945 5.185315
2006-03-03 08:59:23 51°9.516 2°37.788 -999 2.856662 30.894108 5.185315
2006-03-03 08:59:27 51°9.515 2°37.785 -999 2.85811 30.912322 5.185315
2006-03-03 08:59:32 51°9.515 2°37.782 -999 2.85811 30.912322 5.185315
2006-03-03 08:59:37 51°9.515 2°37.779 -999 2.85811 30.912322 5.185315
2006-03-03 08:59:42 51°9.514 2°37.777 -999 2.856766 30.896287 5.151606
2006-03-03 08:59:47 51°9.514 2°37.774 -999 2.858317 30.914789 5.151606
2006-03-03 08:59:52 51°9.513 2°37.771 -999 2.855628 30.882719 5.151606
2006-03-03 08:59:57 51°9.513 2°37.768 -999 2.855525 30.881486 5.151606
2006-03-03 09:00:02 51°9.512 2°37.765 -999 2.857386 30.902742 5.151606
2006-03-03 09:00:07 51°9.512 2°37.762 -999 2.857386 30.902742 5.151606
2006-03-03 09:00:12 51°9.512 2°37.759 -999 2.855835 30.884241 5.151606
2006-03-03 09:00:17 51°9.511 2°37.756 -999 2.857179 30.901221 5.151606
2006-03-03 09:00:22 51°9.511 2°37.753 -999 2.852423 30.845432 5.151606
2006-03-03 09:00:27 51°9.51 2°37.75 -999 2.859868 30.935185 5.117896
2006-03-03 09:00:32 51°9.51 2°37.748 -999 2.852423 30.846376 5.151606
2006-03-03 09:00:37 51°9.509 2°37.745 -999 2.852423 30.846376 5.151606
2006-03-03 09:00:42 51°9.509 2°37.742 -999 2.853561 30.859942 5.117896
2006-03-03 09:00:47 51°9.509 2°37.739 -999 2.857696 30.908333 5.117896
2006-03-03 09:00:52 51°9.508 2°37.736 -999 2.851079 30.829401 5.117896
2006-03-03 09:00:57 51°9.508 2°37.733 -999 2.85263 30.847898 5.117896
2006-03-03 09:01:02 51°9.507 2°37.73 -999 2.857283 30.904345 5.117896
2006-03-03 09:01:07 51°9.506 2°37.727 -999 2.857283 30.904345 5.117896
2006-03-03 09:01:12 51°9.506 2°37.724 -999 2.85749 30.906812 5.117896
2006-03-03 09:01:17 51°9.505 2°37.72 -999 2.850148 30.818303 5.151606
2006-03-03 09:01:22 51°9.504 2°37.717 -999 2.852837 30.851309 5.185315
2006-03-03 09:01:27 51°9.503 2°37.714 -999 2.850665 30.825412 5.219024
2006-03-03 09:01:32 51°9.502 2°37.711 -999 2.850148 30.819246 5.219024
2006-03-03 09:01:37 51°9.502 2°37.708 -999 2.850148 30.819246 5.219024
2006-03-03 09:01:42 51°9.501 2°37.705 -999 2.854078 30.866108 5.219024
2006-03-03 09:01:47 51°9.499 2°37.702 -999 2.855732 30.884898 5.219024
2006-03-03 09:01:52 51°9.498 2°37.698 -999 2.843221 30.734764 5.252734
2006-03-03 09:01:57 51°9.497 2°37.695 -999 2.853871 30.860809 5.252734
2006-03-03 09:02:02 51°9.496 2°37.692 -999 2.851596 30.83368 5.252734
2006-03-03 09:02:07 51°9.495 2°37.689 -999 2.851596 30.83368 5.252734
2006-03-03 09:02:12 51°9.493 2°37.686 -999 2.84136 30.711639 5.252734
2006-03-03 09:02:17 51°9.492 2°37.683 -999 2.857593 30.904264 5.252734
2006-03-03 09:02:22 51°9.49 2°37.68 -999 2.85873 30.917832 5.252734
2006-03-03 09:02:27 51°9.489 2°37.677 -999 2.857283 30.899618 5.252734
2006-03-03 09:02:32 51°9.487 2°37.674 -999 2.858213 30.909773 5.252734
2006-03-03 09:02:37 51°9.486 2°37.672 -999 2.858213 30.909773 5.252734
2006-03-03 09:02:42 51°9.485 2°37.669 -999 2.856249 30.885396 5.286443
2006-03-03 09:02:47 51°9.483 2°37.666 -999 2.854181 30.859789 5.286443
2006-03-03 09:02:52 51°9.482 2°37.663 -999 2.862143 30.954753 5.286443
2006-03-03 09:02:57 51°9.48 2°37.66 -999 2.864004 30.976011 5.286443
2006-03-03 09:03:02 51°9.479 2°37.657 -999 2.849735 30.80489 5.286443
2006-03-03 09:03:07 51°9.478 2°37.655 -999 2.849735 30.80489 5.286443
2006-03-03 09:03:12 51°9.476 2°37.652 -999 2.864521 30.982179 5.286443
2006-03-03 09:03:17 51°9.475 2°37.649 -999 2.861315 30.942992 5.286443
2006-03-03 09:03:22 51°9.474 2°37.646 -999 2.833708 30.612969 5.286443
2006-03-03 09:03:27 51°9.472 2°37.643 -999 2.858937 30.91368 5.286443
2006-03-03 09:03:32 51°9.471 2°37.64 -999 2.860902 30.937112 5.286443
2006-03-03 09:03:37 51°9.47 2°37.637 -999 2.860902 30.937112 5.286443
2006-03-03 09:03:42 51°9.469 2°37.634 -999 2.861212 30.940812 5.286443
2006-03-03 09:03:47 51°9.467 2°37.632 -999 2.859661 30.923258 5.286443
2006-03-03 09:03:52 51°9.466 2°37.629 -999 2.85294 30.842163 5.320153
2006-03-03 09:03:57 51°9.465 2°37.626 -999 2.863177 30.964248 5.320153
2006-03-03 09:04:02 51°9.464 2°37.623 -999 2.861936 30.949446 5.320153
2006-03-03 09:04:07 51°9.463 2°37.62 -999 2.861936 30.949446 5.320153
2006-03-03 09:04:12 51°9.462 2°37.617 -999 2.858213 30.905047 5.320153
2006-03-03 09:04:17 51°9.46 2°37.614 -999 2.863383 30.965768 5.320153
2006-03-03 09:04:22 51°9.459 2°37.611 -999 2.860798 30.933987 5.320153
2006-03-03 09:04:27 51°9.458 2°37.608 -999 2.860488 30.929341 5.320153
2006-03-03 09:04:32 51°9.457 2°37.605 -999 2.858524 30.904966 5.320153
2006-03-03 09:04:37 51°9.456 2°37.602 -999 2.858524 30.904966 5.320153
2006-03-03 09:04:42 51°9.454 2°37.599 -999 2.849631 30.798948 5.353862
2006-03-03 09:04:47 51°9.453 2°37.597 -999 2.864417 30.974314 5.353862
2006-03-03 09:04:52 51°9.452 2°37.593 -999 2.858627 30.905254 5.353862
2006-03-03 09:04:57 51°9.451 2°37.591 -999 2.860695 30.929916 5.353862
2006-03-03 09:05:02 51°9.45 2°37.587 -999 2.858317 30.901555 5.353862
2006-03-03 09:05:07 51°9.449 2°37.585 -999 2.858317 30.901555 5.353862
2006-03-03 09:05:12 51°9.447 2°37.581 -999 2.866175 30.995283 5.387571
2006-03-03 09:05:17 51°9.446 2°37.578 -999 2.863383 30.961034 5.353862
2006-03-03 09:05:22 51°9.445 2°37.575 -999 2.86266 30.951455 5.387571
2006-03-03 09:05:27 51°9.444 2°37.572 -999 2.860281 30.923093 5.353862
2006-03-03 09:05:32 51°9.443 2°37.569 -999 2.855628 30.866668 5.387571
2006-03-03 09:05:37 51°9.442 2°37.566 -999 2.855628 30.866668 5.387571
2006-03-03 09:05:42 51°9.441 2°37.563 -999 2.857283 30.886393 5.387571
2006-03-03 09:05:47 51°9.44 2°37.56 -999 2.864728 30.974226 5.387571
2006-03-03 09:05:52 51°9.438 2°37.557 -999 2.85842 30.898065 5.387571
2006-03-03 09:05:57 51°9.437 2°37.555 -999 2.866072 30.989312 5.387571
2006-03-03 09:06:02 51°9.436 2°37.552 -999 2.862659 30.946724 5.421281
2006-03-03 09:06:07 51°9.435 2°37.549 -999 2.862659 30.946724 5.421281
2006-03-03 09:06:12 51°9.434 2°37.545 -999 2.86421 30.96522 5.421281
2006-03-03 09:06:17 51°9.433 2°37.543 -999 2.865038 30.975085 5.421281
2006-03-03 09:06:22 51°9.432 2°37.539 -999 2.852526 30.82592 5.421281
2006-03-03 09:06:27 51°9.431 2°37.536 -999 2.863797 30.959341 5.45499
2006-03-03 09:06:32 51°9.43 2°37.533 -999 2.860902 30.924818 5.45499
2006-03-03 09:06:37 51°9.429 2°37.53 -999 2.860902 30.924818 5.45499
2006-03-03 09:06:42 51°9.428 2°37.527 -999 2.860281 30.917421 5.45499
2006-03-03 09:06:47 51°9.427 2°37.525 -999 2.864934 30.971958 5.4887
2006-03-03 09:06:52 51°9.426 2°37.521 -999 2.860074 30.91401 5.4887
2006-03-03 09:06:57 51°9.425 2°37.519 -999 2.866485 30.989508 5.522409
2006-03-03 09:07:02 51°9.424 2°37.515 -999 2.864934 30.970065 5.556118
2006-03-03 09:07:07 51°9.423 2°37.513 -999 2.864934 30.970065 5.556118
2006-03-03 09:07:12 51°9.422 2°37.509 -999 2.864417 30.962953 5.556118
2006-03-03 09:07:17 51°9.421 2°37.506 -999 2.854181 30.840925 5.556118
2006-03-03 09:07:22 51°9.42 2°37.503 -999 2.863797 30.955556 5.589828
2006-03-03 09:07:27 51°9.419 2°37.5 -999 2.862659 30.941994 5.589828
2006-03-03 09:07:32 51°9.418 2°37.497 -999 2.865348 30.97405 5.623537
2006-03-03 09:07:37 51°9.417 2°37.494 -999 2.865348 30.97405 5.623537
2006-03-03 09:07:42 51°9.417 2°37.491 -999 2.861832 30.932132 5.623537
2006-03-03 09:07:47 51°9.415 2°37.488 -999 2.863073 30.946926 5.657247
2006-03-03 09:07:52 51°9.414 2°37.485 -999 2.864107 30.958308 5.657247
2006-03-03 09:07:57 51°9.414 2°37.482 -999 2.859144 30.898193 5.690956
2006-03-03 09:08:02 51°9.413 2°37.479 -999 2.867519 30.99805 5.690956
2006-03-03 09:08:07 51°9.412 2°37.476 -999 2.867519 30.99805 5.690956
2006-03-03 09:08:12 51°9.411 2°37.472 -999 2.864521 30.96324 5.690956
2006-03-03 09:08:17 51°9.41 2°37.469 -999 2.868553 31.011328 5.724665
2006-03-03 09:08:22 51°9.409 2°37.466 -999 2.867002 30.991884 5.724665
2006-03-03 09:08:27 51°9.408 2°37.463 -999 2.866278 30.983253 5.758375
2006-03-03 09:08:32 51°9.407 2°37.46 -999 2.862039 30.933652 5.758375
2006-03-03 09:08:37 51°9.406 2°37.457 -999 2.862039 30.933652 5.758375
2006-03-03 09:08:42 51°9.405 2°37.454 -999 2.844978 30.730339 5.792084
2006-03-03 09:08:47 51°9.404 2°37.451 -999 2.864831 30.966939 5.792084
2006-03-03 09:08:52 51°9.403 2°37.447 -999 2.862763 30.942281 5.758375
2006-03-03 09:08:57 51°9.402 2°37.445 -999 2.864314 30.96172 5.758375
2006-03-03 09:09:02 51°9.401 2°37.441 -999 2.867726 31.002411 5.724665
2006-03-03 09:09:07 51°9.4 2°37.438 -999 2.867726 31.002411 5.724665
2006-03-03 09:09:12 51°9.399 2°37.435 -999 2.868243 31.009524 5.690956
2006-03-03 09:09:17 51°9.398 2°37.432 -999 2.866072 30.983628 5.623537
2006-03-03 09:09:22 51°9.397 2°37.429 -999 2.86814 31.008291 5.589828
2006-03-03 09:09:27 51°9.396 2°37.426 -999 2.85811 30.8887 5.556118
2006-03-03 09:09:32 51°9.395 2°37.423 -999 2.864831 30.970725 5.522409
2006-03-03 09:09:37 51°9.394 2°37.42 -999 2.864831 30.970725 5.522409
2006-03-03 09:09:42 51°9.393 2°37.417 -999 2.860591 30.922065 5.522409
2006-03-03 09:09:47 51°9.393 2°37.413 -999 2.860385 30.920544 5.522409
2006-03-03 09:09:52 51°9.392 2°37.41 -999 2.861522 30.934107 5.522409
2006-03-03 09:09:57 51°9.391 2°37.407 -999 2.86297 30.952315 5.522409
2006-03-03 09:10:02 51°9.39 2°37.404 -999 2.864934 30.975746 5.522409
2006-03-03 09:10:07 51°9.389 2°37.401 -999 2.864934 30.975746 5.522409
2006-03-03 09:10:12 51°9.388 2°37.398 -999 2.864004 30.964647 5.522409
2006-03-03 09:10:17 51°9.387 2°37.395 -999 2.864831 30.973565 5.522409
2006-03-03 09:10:22 51°9.386 2°37.391 -999 2.859764 30.912202 5.522409
2006-03-03 09:10:27 51°9.385 2°37.388 -999 2.857593 30.887258 5.4887
2006-03-03 09:10:33 51°9.384 2°37.384 -999 2.856559 30.873987 5.45499
2006-03-03 09:10:37 51°9.383 2°37.382 -999 2.856559 30.873987 5.45499
2006-03-03 09:10:42 51°9.382 2°37.379 -999 2.85842 30.89712 5.421281
2006-03-03 09:10:47 51°9.381 2°37.375 -999 2.8639 30.96436 5.387571
2006-03-03 09:10:52 51°9.381 2°37.372 -999 2.864417 30.970526 5.387571
2006-03-03 09:10:57 51°9.38 2°37.369 -999 2.853664 30.842305 5.320153
2006-03-03 09:11:02 51°9.379 2°37.366 -999 2.854388 30.850933 5.320153
2006-03-03 09:11:07 51°9.378 2°37.363 -999 2.854388 30.850933 5.320153
2006-03-03 09:11:12 51°9.377 2°37.36 -999 2.861625 30.937231 5.286443
2006-03-03 09:11:17 51°9.376 2°37.356 -999 2.863797 30.96218 5.252734
2006-03-03 09:11:22 51°9.375 2°37.353 -999 2.859454 30.911338 5.219024
2006-03-03 09:11:27 51°9.375 2°37.35 -999 2.860385 30.92338 5.151606
2006-03-03 09:11:32 51°9.374 2°37.346 -999 2.857696 30.893213 5.117896
2006-03-03 09:11:37 51°9.373 2°37.343 -999 2.857696 30.893213 5.117896
2006-03-03 09:11:42 51°9.372 2°37.34 -999 2.856766 30.884005 5.117896
2006-03-03 09:11:47 51°9.371 2°37.337 -999 2.859041 30.911132 5.084187
2006-03-03 09:11:52 51°9.37 2°37.334 -999 2.8578 30.89728 5.084187
2006-03-03 09:11:57 51°9.369 2°37.33 -999 2.856973 30.88836 5.084187
2006-03-03 09:12:02 51°9.368 2°37.327 -999 2.849424 30.799308 5.016768
2006-03-03 09:12:07 51°9.367 2°37.324 -999 2.849424 30.799308 5.016768
2006-03-03 09:12:12 51°9.366 2°37.321 -999 2.854594 30.86189 5.016768
2006-03-03 09:12:17 51°9.366 2°37.317 -999 2.861109 30.938633 4.949349
2006-03-03 09:12:22 51°9.365 2°37.314 -999 2.862246 30.953146 4.949349
2006-03-03 09:12:27 51°9.364 2°37.311 -999 2.8578 30.900114 4.949349
2006-03-03 09:12:32 51°9.363 2°37.308 -999 2.861832 30.948213 4.91564
2006-03-03 09:12:37 51°9.362 2°37.305 -999 2.861832 30.948213 4.91564
2006-03-03 09:12:43 51°9.361 2°37.3 -999 2.859454 30.919846 4.91564
2006-03-03 09:12:47 51°9.36 2°37.298 -999 2.856973 30.890249 4.88193
2006-03-03 09:12:52 51°9.359 2°37.295 -999 2.849735 30.80489 4.88193
2006-03-03 09:12:57 51°9.358 2°37.291 -999 2.856869 30.890906 4.88193
2006-03-03 09:13:02 51°9.357 2°37.288 -999 2.859868 30.926671 4.848221
2006-03-03 09:13:07 51°9.357 2°37.285 -999 2.859868 30.926671 4.848221
2006-03-03 09:13:12 51°9.356 2°37.281 -999 2.857179 30.89366 4.848221
2006-03-03 09:13:17 51°9.355 2°37.278 -999 2.859971 30.926958 4.848221
2006-03-03 09:13:22 51°9.354 2°37.275 -999 2.847874 30.781762 4.814512
2006-03-03 09:13:27 51°9.353 2°37.272 -999 2.857283 30.893004 4.848221
2006-03-03 09:13:32 51°9.352 2°37.268 -999 2.855628 30.87422 4.814512
2006-03-03 09:13:37 51°9.351 2°37.265 -999 2.855628 30.87422 4.814512
2006-03-03 09:13:42 51°9.35 2°37.262 -999 2.84684 30.769437 4.814512
2006-03-03 09:13:47 51°9.349 2°37.259 -999 2.853457 30.848328 4.814512
2006-03-03 09:13:52 51°9.349 2°37.255 -999 2.857903 30.901348 4.814512
2006-03-03 09:13:57 51°9.348 2°37.252 -999 2.859661 30.921367 4.814512
2006-03-03 09:14:02 51°9.347 2°37.248 -999 2.859351 30.917667 4.814512